Time,TemperatureF,DewpointF,PressureIn,WindDirection,WindDirectionDegrees,WindSpeedMPH,WindSpeedGustMPH,Humidity,HourlyPrecipIn,Conditions,Clouds,dailyrainin,SoftwareType,DateUTC
2013-08-02 00:00:00,69.8,51.9,29.06,SSE,164,1.0,0.0,53,0.00,CLR,,0.00,WeatherDisplay:10.37,2013-08-02 05:00:00,
2013-08-02 00:02:00,69.8,51.9,29.06,SSE,158,3.5,3.5,53,0.00,CLR,,0.00,WeatherDisplay:10.37,2013-08-02 05:02:00,
2013-08-02 00:03:00,69.8,51.9,29.06,South,180,2.3,2.3,53,0.00,CLR,,0.00,WeatherDisplay:10.37,2013-08-02 05:03:00,
2013-08-02 00:04:00,69.8,51.9,29.06,South,180,2.3,0.0,53,0.00,CLR,,0.00,WeatherDisplay:10.37,2013-08-02 05:04:00,
2013-08-02 00:05:00,69.8,51.9,29.06,South,174,1.0,0.0,53,0.00,CLR,,0.00,WeatherDisplay:10.37,2013-08-02 05:05:00,
2013-08-02 00:08:00,69.8,51.9,29.06,South,180,2.3,2.3,53,0.00,CLR,,0.00,WeatherDisplay:10.37,2013-08-02 05:08:00,
2013-08-02 00:09:00,69.8,51.9,29.06,South,180,2.3,2.3,53,0.00,CLR,,0.00,WeatherDisplay:10.37,2013-08-02 05:09:00,
2013-08-02 00:10:00,69.8,51.9,29.06,South,172,1.0,0.0,53,0.00,CLR,,0.00,WeatherDisplay:10.37,2013-08-02 05:10:00,
2013-08-02 00:12:00,69.6,51.7,29.06,SSE,158,3.5,3.5,53,0.00,CLR,,0.00,WeatherDisplay:10.37,2013-08-02 05:12:00,
2013-08-02 00:15:00,69.6,51.7,29.06,SSE,168,0.0,0.0,53,0.00,CLR,,0.00,WeatherDisplay:10.37,2013-08-02 05:15:00,
2013-08-02 00:17:00,69.6,52.2,29.06,South,180,2.3,0.0,54,0.00,CLR,,0.00,WeatherDisplay:10.37,2013-08-02 05:17:00,
2013-08-02 00:18:00,69.8,52.4,29.06,South,180,3.5,3.5,54,0.00,CLR,,0.00,WeatherDisplay:10.37,2013-08-02 05:18:00,
2013-08-02 00:19:00,69.8,51.9,29.06,South,180,2.3,2.3,53,0.00,CLR,,0.00,WeatherDisplay:10.37,2013-08-02 05:19:00,
2013-08-02 00:20:00,69.8,51.9,29.06,South,170,1.0,0.0,53,0.00,CLR,,0.00,WeatherDisplay:10.37,2013-08-02 05:20:00,
2013-08-02 00:24:00,69.8,52.4,29.06,South,180,2.4,0.0,54,0.00,CLR,,0.00,WeatherDisplay:10.37,2013-08-02 05:24:00,
2013-08-02 00:26:00,69.8,51.9,29.06,South,180,3.5,3.5,53,0.00,CLR,,0.00,WeatherDisplay:10.37,2013-08-02 05:26:00,
2013-08-02 00:28:00,69.6,52.2,29.06,SSW,202,2.9,2.9,54,0.00,CLR,,0.00,WeatherDisplay:10.37,2013-08-02 05:28:00,
2013-08-02 00:29:00,69.6,51.7,29.06,South,180,3.5,0.0,53,0.00,CLR,,0.00,WeatherDisplay:10.37,2013-08-02 05:29:00,
2013-08-02 00:30:00,69.6,51.7,29.06,South,180,1.1,0.0,53,0.00,CLR,,0.00,WeatherDisplay:10.37,2013-08-02 05:30:00,
2013-08-02 00:31:00,69.6,52.2,29.06,SW,225,2.4,2.4,54,0.00,CLR,,0.00,WeatherDisplay:10.37,2013-08-02 05:31:00,
2013-08-02 00:34:00,69.6,52.2,29.06,SSW,202,2.3,2.3,54,0.00,CLR,,0.00,WeatherDisplay:10.37,2013-08-02 05:34:00,
2013-08-02 00:35:00,69.6,52.7,29.06,South,190,2.0,0.0,55,0.00,CLR,,0.00,WeatherDisplay:10.37,2013-08-02 05:35:00,
2013-08-02 00:37:00,69.4,52.1,29.06,SSW,202,2.3,2.3,54,0.00,CLR,,0.00,WeatherDisplay:10.37,2013-08-02 05:37:00,
2013-08-02 00:39:00,69.4,52.1,29.06,South,180,2.0,2.0,54,0.00,CLR,,0.00,WeatherDisplay:10.37,2013-08-02 05:39:00,
2013-08-02 00:40:00,69.4,52.1,29.06,SSW,192,0.0,0.0,54,0.00,CLR,,0.00,WeatherDisplay:10.37,2013-08-02 05:40:00,
2013-08-02 00:41:00,69.4,52.1,29.06,SW,225,2.3,2.3,54,0.00,CLR,,0.00,WeatherDisplay:10.37,2013-08-02 05:41:00,
2013-08-02 00:42:00,69.4,52.6,29.06,SW,225,3.5,3.5,55,0.00,CLR,,0.00,WeatherDisplay:10.37,2013-08-02 05:42:00,
2013-08-02 00:43:00,69.4,52.6,29.06,SSW,202,2.3,2.3,55,0.00,CLR,,0.00,WeatherDisplay:10.37,2013-08-02 05:43:00,
2013-08-02 00:46:00,69.3,52.4,29.06,SW,225,2.3,2.3,55,0.00,CLR,,0.00,WeatherDisplay:10.37,2013-08-02 05:46:00,
2013-08-02 00:47:00,69.3,52.4,29.06,SSW,202,2.3,2.3,55,0.00,CLR,,0.00,WeatherDisplay:10.37,2013-08-02 05:47:00,
2013-08-02 00:48:00,69.3,52.4,29.06,South,180,2.3,2.3,55,0.00,CLR,,0.00,WeatherDisplay:10.37,2013-08-02 05:48:00,
2013-08-02 00:49:00,69.3,52.4,29.06,SSW,202,1.4,1.4,55,0.00,CLR,,0.00,WeatherDisplay:10.37,2013-08-02 05:49:00,
2013-08-02 00:52:00,69.3,52.9,29.06,South,180,1.1,1.1,56,0.00,CLR,,0.00,WeatherDisplay:10.37,2013-08-02 05:52:00,
2013-08-02 00:55:00,69.1,52.7,29.06,SSW,201,1.0,0.0,56,0.00,CLR,,0.00,WeatherDisplay:10.37,2013-08-02 05:55:00,
2013-08-02 00:57:00,69.1,52.2,29.06,SSW,202,2.3,2.3,55,0.00,CLR,,0.00,WeatherDisplay:10.37,2013-08-02 05:57:00,
2013-08-02 01:00:00,69.1,52.7,29.06,SW,225,2.3,2.3,56,0.00,CLR,,0.00,WeatherDisplay:10.37,2013-08-02 06:00:00,
2013-08-02 01:01:00,68.9,52.6,29.06,SSW,202,2.3,2.3,56,0.00,CLR,,0.00,WeatherDisplay:10.37,2013-08-02 06:01:00,
2013-08-02 01:03:00,68.9,52.6,29.06,SSW,202,5.8,5.8,56,0.00,CLR,,0.00,WeatherDisplay:10.37,2013-08-02 06:03:00,
2013-08-02 01:04:00,68.9,52.6,29.06,South,180,5.8,5.8,56,0.00,CLR,,0.00,WeatherDisplay:10.37,2013-08-02 06:04:00,
2013-08-02 01:05:00,68.9,52.6,29.06,SE,135,1.4,1.4,56,0.00,CLR,,0.00,WeatherDisplay:10.37,2013-08-02 06:05:00,
2013-08-02 01:08:00,68.7,52.4,29.06,SSE,158,3.5,3.5,56,0.00,CLR,,0.00,WeatherDisplay:10.37,2013-08-02 06:08:00,
2013-08-02 01:09:00,68.7,52.4,29.06,South,180,2.3,2.3,56,0.00,CLR,,0.00,WeatherDisplay:10.37,2013-08-02 06:09:00,
2013-08-02 01:10:00,68.7,52.9,29.06,South,180,2.3,0.0,57,0.00,CLR,,0.00,WeatherDisplay:10.37,2013-08-02 06:10:00,
2013-08-02 01:11:00,68.7,52.9,29.06,SSW,202,2.3,0.0,57,0.00,CLR,,0.00,WeatherDisplay:10.37,2013-08-02 06:11:00,
2013-08-02 01:14:00,68.7,52.9,29.03,South,180,2.3,2.3,57,0.00,CLR,,0.00,WeatherDisplay:10.37,2013-08-02 06:14:00,
2013-08-02 01:15:00,68.7,52.9,29.03,South,180,1.1,0.0,57,0.00,CLR,,0.00,WeatherDisplay:10.37,2013-08-02 06:15:00,
2013-08-02 01:16:00,68.7,52.9,29.03,SW,225,1.6,0.0,57,0.00,CLR,,0.00,WeatherDisplay:10.37,2013-08-02 06:16:00,
2013-08-02 01:19:00,68.5,52.7,29.03,SW,225,1.1,1.1,57,0.00,CLR,,0.00,WeatherDisplay:10.37,2013-08-02 06:19:00,
2013-08-02 01:20:00,68.5,52.7,29.03,SSW,202,2.3,2.3,57,0.00,CLR,,0.00,WeatherDisplay:10.37,2013-08-02 06:20:00,
2013-08-02 01:21:00,68.5,52.7,29.03,South,180,1.4,1.4,57,0.00,CLR,,0.00,WeatherDisplay:10.37,2013-08-02 06:21:00,
2013-08-02 01:22:00,68.5,52.7,29.03,SW,225,1.1,1.1,57,0.00,CLR,,0.00,WeatherDisplay:10.37,2013-08-02 06:22:00,
2013-08-02 01:24:00,68.5,52.7,29.03,SSW,202,1.1,1.1,57,0.00,CLR,,0.00,WeatherDisplay:10.37,2013-08-02 06:24:00,
2013-08-02 01:26:00,68.5,52.7,29.03,South,180,1.1,0.0,57,0.00,CLR,,0.00,WeatherDisplay:10.37,2013-08-02 06:26:00,
2013-08-02 01:27:00,68.5,52.7,29.03,SSW,202,2.3,0.0,57,0.00,CLR,,0.00,WeatherDisplay:10.37,2013-08-02 06:27:00,
2013-08-02 01:29:00,68.5,52.7,29.03,SW,225,3.3,3.3,57,0.00,CLR,,0.00,WeatherDisplay:10.37,2013-08-02 06:29:00,
2013-08-02 01:30:00,68.5,52.7,29.03,SSW,202,2.0,0.0,57,0.00,CLR,,0.00,WeatherDisplay:10.37,2013-08-02 06:30:00,
2013-08-02 01:32:00,68.4,53.0,29.03,SSW,202,3.5,3.5,58,0.00,CLR,,0.00,WeatherDisplay:10.37,2013-08-02 06:32:00,
2013-08-02 01:35:00,68.4,53.0,29.03,SSW,202,1.1,1.4,58,0.00,CLR,,0.00,WeatherDisplay:10.37,2013-08-02 06:35:00,
2013-08-02 01:36:00,68.4,53.0,29.03,SSW,202,3.5,3.5,58,0.00,CLR,,0.00,WeatherDisplay:10.37,2013-08-02 06:36:00,
2013-08-02 01:39:00,68.4,53.0,29.03,South,180,2.4,2.4,58,0.00,CLR,,0.00,WeatherDisplay:10.37,2013-08-02 06:39:00,
2013-08-02 01:40:00,68.4,53.0,29.03,SW,225,2.3,2.3,58,0.00,CLR,,0.00,WeatherDisplay:10.37,2013-08-02 06:40:00,
2013-08-02 01:41:00,68.4,53.0,29.03,SSW,202,2.3,2.3,58,0.00,CLR,,0.00,WeatherDisplay:10.37,2013-08-02 06:41:00,
2013-08-02 01:42:00,68.4,53.5,29.03,South,180,2.4,2.4,59,0.00,CLR,,0.00,WeatherDisplay:10.37,2013-08-02 06:42:00,
2013-08-02 01:45:00,68.4,53.0,29.03,South,190,1.0,0.0,58,0.00,CLR,,0.00,WeatherDisplay:10.37,2013-08-02 06:45:00,
2013-08-02 01:47:00,68.5,53.6,29.03,South,180,5.6,5.6,59,0.00,CLR,,0.00,WeatherDisplay:10.37,2013-08-02 06:47:00,
2013-08-02 01:48:00,68.5,53.6,29.03,SSE,158,5.8,5.8,59,0.00,CLR,,0.00,WeatherDisplay:10.37,2013-08-02 06:48:00,
2013-08-02 01:50:00,68.5,53.6,29.03,South,191,1.0,0.0,59,0.00,CLR,,0.00,WeatherDisplay:10.37,2013-08-02 06:50:00,
2013-08-02 01:52:00,68.5,53.6,29.03,South,180,4.6,4.6,59,0.00,CLR,,0.00,WeatherDisplay:10.37,2013-08-02 06:52:00,
2013-08-02 01:53:00,68.5,53.6,29.03,SSW,202,4.6,4.6,59,0.00,CLR,,0.00,WeatherDisplay:10.37,2013-08-02 06:53:00,
2013-08-02 01:55:00,68.5,53.6,29.03,South,183,2.0,0.0,59,0.00,CLR,,0.00,WeatherDisplay:10.37,2013-08-02 06:55:00,
2013-08-02 01:57:00,68.5,53.6,29.03,South,180,3.6,3.6,59,0.00,CLR,,0.00,WeatherDisplay:10.37,2013-08-02 06:57:00,
2013-08-02 01:59:00,68.5,53.6,29.03,South,180,3.5,3.5,59,0.00,CLR,,0.00,WeatherDisplay:10.37,2013-08-02 06:59:00,
2013-08-02 02:00:00,68.5,53.6,29.03,SW,225,1.1,1.1,59,0.00,CLR,,0.00,WeatherDisplay:10.37,2013-08-02 07:00:00,
2013-08-02 02:02:00,68.5,53.6,29.03,SW,225,3.5,3.5,59,0.00,CLR,,0.00,WeatherDisplay:10.37,2013-08-02 07:02:00,
2013-08-02 02:04:00,68.7,53.8,29.03,South,180,4.6,4.6,59,0.00,CLR,,0.00,WeatherDisplay:10.37,2013-08-02 07:04:00,
2013-08-02 02:05:00,68.7,53.8,29.03,South,185,2.0,0.0,59,0.00,CLR,,0.00,WeatherDisplay:10.37,2013-08-02 07:05:00,
2013-08-02 02:08:00,68.7,53.8,29.03,SSW,202,4.6,4.6,59,0.00,CLR,,0.00,WeatherDisplay:10.37,2013-08-02 07:08:00,
2013-08-02 02:10:00,68.7,53.8,29.03,South,184,1.0,0.0,59,0.00,CLR,,0.00,WeatherDisplay:10.37,2013-08-02 07:10:00,
2013-08-02 02:13:00,68.7,53.8,29.03,SSW,202,3.5,3.5,59,0.00,CLR,,0.00,WeatherDisplay:10.37,2013-08-02 07:13:00,
2013-08-02 02:15:00,68.7,53.8,29.03,SW,225,2.3,2.3,59,0.00,CLR,,0.00,WeatherDisplay:10.37,2013-08-02 07:15:00,
2013-08-02 02:17:00,68.7,53.8,29.03,SSW,202,5.4,5.4,59,0.00,CLR,,0.00,WeatherDisplay:10.37,2013-08-02 07:17:00,
2013-08-02 02:18:00,68.7,53.8,29.03,South,180,5.8,5.8,59,0.00,CLR,,0.00,WeatherDisplay:10.37,2013-08-02 07:18:00,
2013-08-02 02:21:00,68.7,54.3,29.03,South,180,4.6,4.6,60,0.00,CLR,,0.00,WeatherDisplay:10.37,2013-08-02 07:21:00,
2013-08-02 02:22:00,68.7,54.3,29.03,South,180,2.3,2.3,60,0.00,CLR,,0.00,WeatherDisplay:10.37,2013-08-02 07:22:00,
2013-08-02 02:23:00,68.7,54.3,29.03,South,180,2.3,0.0,60,0.00,CLR,,0.00,WeatherDisplay:10.37,2013-08-02 07:23:00,
2013-08-02 02:27:00,68.7,54.3,29.03,South,180,4.6,4.6,60,0.00,CLR,,0.00,WeatherDisplay:10.37,2013-08-02 07:27:00,
2013-08-02 02:29:00,68.7,53.8,29.03,SSW,202,3.5,3.5,59,0.00,CLR,,0.00,WeatherDisplay:10.37,2013-08-02 07:29:00,
2013-08-02 02:30:00,68.7,53.8,29.03,SW,225,2.2,2.2,59,0.00,CLR,,0.00,WeatherDisplay:10.37,2013-08-02 07:30:00,
2013-08-02 02:33:00,68.7,53.8,29.03,South,180,3.5,3.5,59,0.00,CLR,,0.00,WeatherDisplay:10.37,2013-08-02 07:33:00,
2013-08-02 02:34:00,68.7,53.8,29.03,South,180,2.6,2.6,59,0.00,CLR,,0.00,WeatherDisplay:10.37,2013-08-02 07:34:00,
2013-08-02 02:35:00,68.7,53.8,29.03,SSW,193,1.0,0.0,59,0.00,CLR,,0.00,WeatherDisplay:10.37,2013-08-02 07:35:00,
2013-08-02 02:38:00,68.5,53.6,29.03,SSE,158,3.5,3.5,59,0.00,CLR,,0.00,WeatherDisplay:10.37,2013-08-02 07:38:00,
2013-08-02 02:39:00,68.5,54.1,29.03,SSW,202,4.7,4.7,60,0.00,CLR,,0.00,WeatherDisplay:10.37,2013-08-02 07:39:00,
2013-08-02 02:40:00,68.5,54.1,29.03,SW,225,4.6,4.6,60,0.00,CLR,,0.00,WeatherDisplay:10.37,2013-08-02 07:40:00,
2013-08-02 02:41:00,68.5,54.1,29.03,SW,225,2.3,2.3,60,0.00,CLR,,0.00,WeatherDisplay:10.37,2013-08-02 07:41:00,
2013-08-02 02:42:00,68.5,54.1,29.03,South,180,3.6,3.6,60,0.00,CLR,,0.00,WeatherDisplay:10.37,2013-08-02 07:42:00,
2013-08-02 02:45:00,68.5,54.1,29.03,SSW,211,1.0,0.0,60,0.00,CLR,,0.00,WeatherDisplay:10.37,2013-08-02 07:45:00,
2013-08-02 02:47:00,68.4,53.9,29.03,SSE,158,2.3,2.3,60,0.00,CLR,,0.00,WeatherDisplay:10.37,2013-08-02 07:47:00,
2013-08-02 02:48:00,68.4,53.5,29.03,ESE,112,1.1,1.4,59,0.00,CLR,,0.00,WeatherDisplay:10.37,2013-08-02 07:48:00,
2013-08-02 02:49:00,68.4,53.5,29.03,SSW,202,1.6,1.6,59,0.00,CLR,,0.00,WeatherDisplay:10.37,2013-08-02 07:49:00,
2013-08-02 02:50:00,68.4,53.5,29.03,SSW,202,1.0,0.0,59,0.00,CLR,,0.00,WeatherDisplay:10.37,2013-08-02 07:50:00,
2013-08-02 02:54:00,68.4,53.5,29.03,SSW,202,3.5,3.5,59,0.00,CLR,,0.00,WeatherDisplay:10.37,2013-08-02 07:54:00,
2013-08-02 02:55:00,68.4,53.5,29.03,SSW,202,2.3,2.3,59,0.00,CLR,,0.00,WeatherDisplay:10.37,2013-08-02 07:55:00,
2013-08-02 02:57:00,68.4,53.5,29.03,South,180,5.8,5.8,59,0.00,CLR,,0.00,WeatherDisplay:10.37,2013-08-02 07:57:00,
2013-08-02 02:59:00,68.2,53.3,29.03,South,180,4.6,4.6,59,0.00,CLR,,0.00,WeatherDisplay:10.37,2013-08-02 07:59:00,
2013-08-02 03:00:00,68.4,53.9,29.03,South,180,2.3,2.3,60,0.00,CLR,,0.00,WeatherDisplay:10.37,2013-08-02 08:00:00,
2013-08-02 03:02:00,68.4,53.9,29.03,SW,225,3.3,3.3,60,0.00,CLR,,0.00,WeatherDisplay:10.37,2013-08-02 08:02:00,
2013-08-02 03:05:00,68.4,53.9,29.03,SSW,194,2.0,0.0,60,0.00,CLR,,0.00,WeatherDisplay:10.37,2013-08-02 08:05:00,
2013-08-02 03:09:00,68.4,53.9,29.03,SSW,202,4.0,4.0,60,0.00,CLR,,0.00,WeatherDisplay:10.37,2013-08-02 08:09:00,
2013-08-02 03:10:00,68.4,53.9,29.03,SSE,158,4.6,4.6,60,0.00,CLR,,0.00,WeatherDisplay:10.37,2013-08-02 08:10:00,
2013-08-02 03:11:00,68.4,53.9,29.03,South,180,3.5,3.5,60,0.00,CLR,,0.00,WeatherDisplay:10.37,2013-08-02 08:11:00,
2013-08-02 03:12:00,68.4,53.9,29.03,SSW,202,3.5,3.5,60,0.00,CLR,,0.00,WeatherDisplay:10.37,2013-08-02 08:12:00,
2013-08-02 03:16:00,68.4,53.9,29.03,SW,225,3.3,3.3,60,0.00,CLR,,0.00,WeatherDisplay:10.37,2013-08-02 08:16:00,
2013-08-02 03:19:00,68.5,54.6,29.03,SSW,202,2.3,2.3,61,0.00,CLR,,0.00,WeatherDisplay:10.37,2013-08-02 08:19:00,
2013-08-02 03:20:00,68.5,54.6,29.03,SSW,198,1.0,0.0,61,0.00,CLR,,0.00,WeatherDisplay:10.37,2013-08-02 08:20:00,
2013-08-02 03:21:00,68.5,54.1,29.03,SSW,202,3.5,3.5,60,0.00,CLR,,0.00,WeatherDisplay:10.37,2013-08-02 08:21:00,
2013-08-02 03:22:00,68.5,54.1,29.03,SW,225,3.5,3.5,60,0.00,CLR,,0.00,WeatherDisplay:10.37,2013-08-02 08:22:00,
2013-08-02 03:25:00,68.5,54.1,29.03,SSW,202,1.0,0.0,60,0.00,CLR,,0.00,WeatherDisplay:10.37,2013-08-02 08:25:00,
2013-08-02 03:26:00,68.7,54.3,29.03,SW,225,1.1,1.1,60,0.00,CLR,,0.00,WeatherDisplay:10.37,2013-08-02 08:26:00,
2013-08-02 03:30:00,68.7,54.3,29.03,ENE,68,1.4,1.4,60,0.00,CLR,,0.00,WeatherDisplay:10.37,2013-08-02 08:30:00,
2013-08-02 03:31:00,68.7,54.3,29.03,SSW,202,2.3,2.3,60,0.00,CLR,,0.00,WeatherDisplay:10.37,2013-08-02 08:31:00,
2013-08-02 03:33:00,68.9,54.4,29.03,SSW,202,2.4,2.4,60,0.00,CLR,,0.00,WeatherDisplay:10.37,2013-08-02 08:33:00,
2013-08-02 03:35:00,68.9,54.4,29.03,SW,225,2.0,2.0,60,0.00,CLR,,0.00,WeatherDisplay:10.37,2013-08-02 08:35:00,
2013-08-02 03:36:00,68.9,54.0,29.03,SSE,158,2.3,2.3,59,0.00,CLR,,0.00,WeatherDisplay:10.37,2013-08-02 08:36:00,
2013-08-02 03:37:00,68.9,54.0,29.03,SSW,202,2.3,2.3,59,0.00,CLR,,0.00,WeatherDisplay:10.37,2013-08-02 08:37:00,
2013-08-02 03:38:00,69.1,54.1,29.03,SSW,202,2.3,2.3,59,0.00,CLR,,0.00,WeatherDisplay:10.37,2013-08-02 08:38:00,
2013-08-02 03:40:00,69.1,54.1,29.03,SW,225,2.3,2.3,59,0.00,CLR,,0.00,WeatherDisplay:10.37,2013-08-02 08:40:00,
2013-08-02 03:41:00,69.1,54.1,29.03,WSW,248,2.3,2.3,59,0.00,CLR,,0.00,WeatherDisplay:10.37,2013-08-02 08:41:00,
2013-08-02 03:43:00,69.1,54.1,29.03,SW,225,4.6,4.6,59,0.00,CLR,,0.00,WeatherDisplay:10.37,2013-08-02 08:43:00,
2013-08-02 03:47:00,69.3,54.3,29.03,South,180,2.3,2.3,59,0.00,CLR,,0.00,WeatherDisplay:10.37,2013-08-02 08:47:00,
2013-08-02 03:48:00,69.3,54.3,29.03,SSE,158,2.3,0.0,59,0.00,CLR,,0.00,WeatherDisplay:10.37,2013-08-02 08:48:00,
2013-08-02 03:49:00,69.3,54.3,29.03,SW,225,1.1,0.0,59,0.00,CLR,,0.00,WeatherDisplay:10.37,2013-08-02 08:49:00,
2013-08-02 03:50:00,69.3,54.3,29.03,SSW,212,1.0,0.0,59,0.00,CLR,,0.00,WeatherDisplay:10.37,2013-08-02 08:50:00,
2013-08-02 03:53:00,69.4,54.0,29.03,South,180,1.1,1.1,58,0.00,CLR,,0.00,WeatherDisplay:10.37,2013-08-02 08:53:00,
2013-08-02 03:54:00,69.4,54.0,29.03,SW,225,2.3,2.3,58,0.00,CLR,,0.00,WeatherDisplay:10.37,2013-08-02 08:54:00,
2013-08-02 03:55:00,69.4,54.0,29.03,SSW,198,1.0,0.0,58,0.00,CLR,,0.00,WeatherDisplay:10.37,2013-08-02 08:55:00,
2013-08-02 03:56:00,69.4,54.0,29.03,SSW,202,1.1,1.1,58,0.00,CLR,,0.00,WeatherDisplay:10.37,2013-08-02 08:56:00,
2013-08-02 03:57:00,69.4,54.0,29.03,SSW,202,4.0,4.0,58,0.00,CLR,,0.00,WeatherDisplay:10.37,2013-08-02 08:57:00,
2013-08-02 04:00:00,69.4,54.0,29.00,SSW,202,2.0,0.0,58,0.00,CLR,,0.00,WeatherDisplay:10.37,2013-08-02 09:00:00,
2013-08-02 04:01:00,69.4,54.0,29.00,SSW,202,1.1,1.1,58,0.00,CLR,,0.00,WeatherDisplay:10.37,2013-08-02 09:01:00,
2013-08-02 04:02:00,69.4,54.0,29.00,West,270,1.6,1.6,58,0.00,CLR,,0.00,WeatherDisplay:10.37,2013-08-02 09:02:00,
2013-08-02 04:05:00,69.4,54.0,29.00,SW,217,1.0,0.0,58,0.00,CLR,,0.00,WeatherDisplay:10.37,2013-08-02 09:05:00,
2013-08-02 04:08:00,69.4,54.0,29.00,SW,225,2.3,2.3,58,0.00,CLR,,0.00,WeatherDisplay:10.37,2013-08-02 09:08:00,
2013-08-02 04:09:00,69.4,54.0,29.00,South,180,2.3,2.3,58,0.00,CLR,,0.00,WeatherDisplay:10.37,2013-08-02 09:09:00,
2013-08-02 04:10:00,69.4,54.0,29.00,South,180,3.5,3.5,58,0.00,CLR,,0.00,WeatherDisplay:10.37,2013-08-02 09:10:00,
2013-08-02 04:13:00,69.6,54.2,29.03,South,180,1.4,2.0,58,0.00,CLR,,0.00,WeatherDisplay:10.37,2013-08-02 09:13:00,
2013-08-02 04:14:00,69.6,54.2,29.03,ESE,112,3.5,3.5,58,0.00,CLR,,0.00,WeatherDisplay:10.37,2013-08-02 09:14:00,
2013-08-02 04:15:00,69.6,54.2,29.03,SSW,210,2.0,0.0,58,0.00,CLR,,0.00,WeatherDisplay:10.37,2013-08-02 09:15:00,
2013-08-02 04:18:00,69.6,54.2,29.03,WSW,248,2.6,2.6,58,0.00,CLR,,0.00,WeatherDisplay:10.37,2013-08-02 09:18:00,
2013-08-02 04:19:00,69.6,54.2,29.03,WNW,292,4.9,4.9,58,0.00,CLR,,0.00,WeatherDisplay:10.37,2013-08-02 09:19:00,
2013-08-02 04:20:00,69.6,54.2,29.03,SSW,202,4.6,4.6,58,0.00,CLR,,0.00,WeatherDisplay:10.37,2013-08-02 09:20:00,
2013-08-02 04:22:00,69.6,54.2,29.03,SW,225,3.5,3.5,58,0.00,CLR,,0.00,WeatherDisplay:10.37,2013-08-02 09:22:00,
2013-08-02 04:23:00,69.6,54.2,29.03,SSE,158,2.9,2.9,58,0.00,CLR,,0.00,WeatherDisplay:10.37,2013-08-02 09:23:00,
2013-08-02 04:24:00,69.6,54.2,29.03,SW,225,2.3,2.3,58,0.00,CLR,,0.00,WeatherDisplay:10.37,2013-08-02 09:24:00,
2013-08-02 04:25:00,69.6,54.2,29.03,SSW,209,1.0,0.0,58,0.00,CLR,,0.00,WeatherDisplay:10.37,2013-08-02 09:25:00,
2013-08-02 04:28:00,69.6,54.2,29.03,SE,135,2.3,2.3,58,0.00,CLR,,0.00,WeatherDisplay:10.37,2013-08-02 09:28:00,
2013-08-02 04:29:00,69.6,54.2,29.03,South,180,2.3,2.3,58,0.00,CLR,,0.00,WeatherDisplay:10.37,2013-08-02 09:29:00,
2013-08-02 04:30:00,69.8,54.4,29.03,South,180,2.3,2.3,58,0.00,CLR,,0.00,WeatherDisplay:10.37,2013-08-02 09:30:00,
2013-08-02 04:32:00,69.8,54.4,29.03,SSW,202,2.3,2.3,58,0.00,CLR,,0.00,WeatherDisplay:10.37,2013-08-02 09:32:00,
2013-08-02 04:33:00,69.8,54.4,29.03,SW,225,3.5,3.5,58,0.00,CLR,,0.00,WeatherDisplay:10.37,2013-08-02 09:33:00,
2013-08-02 04:36:00,69.8,53.9,29.03,South,180,3.5,3.5,57,0.00,CLR,,0.00,WeatherDisplay:10.37,2013-08-02 09:36:00,
2013-08-02 04:37:00,69.8,53.9,29.03,SSW,202,3.5,3.5,57,0.00,CLR,,0.00,WeatherDisplay:10.37,2013-08-02 09:37:00,
2013-08-02 04:38:00,69.8,53.9,29.03,SSW,202,3.5,0.0,57,0.00,CLR,,0.00,WeatherDisplay:10.37,2013-08-02 09:38:00,
2013-08-02 04:41:00,69.8,53.9,29.03,SW,225,3.5,3.5,57,0.00,CLR,,0.00,WeatherDisplay:10.37,2013-08-02 09:41:00,
2013-08-02 04:42:00,69.8,53.9,29.03,SW,225,4.6,4.6,57,0.00,CLR,,0.00,WeatherDisplay:10.37,2013-08-02 09:42:00,
2013-08-02 04:43:00,69.8,53.9,29.03,SSW,202,4.6,4.6,57,0.00,CLR,,0.00,WeatherDisplay:10.37,2013-08-02 09:43:00,
2013-08-02 04:44:00,69.8,53.9,29.03,South,180,2.3,2.3,57,0.00,CLR,,0.00,WeatherDisplay:10.37,2013-08-02 09:44:00,
2013-08-02 04:47:00,69.8,53.9,29.03,West,270,2.3,2.3,57,0.00,CLR,,0.00,WeatherDisplay:10.37,2013-08-02 09:47:00,
2013-08-02 04:48:00,69.8,53.9,29.03,SSW,202,2.9,2.9,57,0.00,CLR,,0.00,WeatherDisplay:10.37,2013-08-02 09:48:00,
2013-08-02 04:50:00,69.8,53.9,29.03,SSW,207,1.0,0.0,57,0.00,CLR,,0.00,WeatherDisplay:10.37,2013-08-02 09:50:00,
2013-08-02 04:53:00,70.0,54.0,29.03,South,180,3.5,3.5,57,0.00,CLR,,0.00,WeatherDisplay:10.37,2013-08-02 09:53:00,
2013-08-02 04:54:00,70.0,54.0,29.03,SW,225,1.1,0.0,57,0.00,CLR,,0.00,WeatherDisplay:10.37,2013-08-02 09:54:00,
2013-08-02 04:55:00,70.0,54.0,29.03,WSW,248,2.3,2.3,57,0.00,CLR,,0.00,WeatherDisplay:10.37,2013-08-02 09:55:00,
2013-08-02 04:59:00,70.0,54.0,29.03,WSW,248,5.8,5.8,57,0.00,CLR,,0.00,WeatherDisplay:10.37,2013-08-02 09:59:00,
2013-08-02 05:00:00,70.0,54.0,29.03,South,180,2.3,2.3,57,0.00,CLR,,0.00,WeatherDisplay:10.37,2013-08-02 10:00:00,
2013-08-02 05:01:00,70.0,54.0,29.03,South,180,1.4,1.4,57,0.00,CLR,,0.00,WeatherDisplay:10.37,2013-08-02 10:01:00,
2013-08-02 05:05:00,70.2,54.2,29.03,SW,225,2.3,2.3,57,0.00,CLR,,0.00,WeatherDisplay:10.37,2013-08-02 10:05:00,
2013-08-02 05:06:00,70.2,54.2,29.03,SSW,202,4.6,4.6,57,0.00,CLR,,0.00,WeatherDisplay:10.37,2013-08-02 10:06:00,
2013-08-02 05:07:00,70.2,54.2,29.03,SSE,158,2.3,2.3,57,0.00,CLR,,0.00,WeatherDisplay:10.37,2013-08-02 10:07:00,
2013-08-02 05:09:00,70.2,54.2,29.03,SSE,158,1.6,1.6,57,0.00,CLR,,0.00,WeatherDisplay:10.37,2013-08-02 10:09:00,
2013-08-02 05:10:00,70.2,54.2,29.03,SSW,202,2.6,2.6,57,0.00,CLR,,0.00,WeatherDisplay:10.37,2013-08-02 10:10:00,
2013-08-02 05:11:00,70.2,54.2,29.03,SSW,202,2.3,2.3,57,0.00,CLR,,0.00,WeatherDisplay:10.37,2013-08-02 10:11:00,
2013-08-02 05:12:00,70.2,54.2,29.03,SSW,202,2.3,2.6,57,0.00,CLR,,0.00,WeatherDisplay:10.37,2013-08-02 10:12:00,
2013-08-02 05:15:00,70.2,54.2,29.03,SSW,210,2.0,0.0,57,0.00,CLR,,0.00,WeatherDisplay:10.37,2013-08-02 10:15:00,
2013-08-02 05:16:00,70.2,54.2,29.03,SSW,202,4.6,4.6,57,0.00,CLR,,0.00,WeatherDisplay:10.37,2013-08-02 10:16:00,
2013-08-02 05:18:00,70.2,54.2,29.03,SW,225,2.3,2.3,57,0.00,CLR,,0.00,WeatherDisplay:10.37,2013-08-02 10:18:00,
2013-08-02 05:21:00,70.2,54.2,29.03,South,180,4.6,4.6,57,0.00,CLR,,0.00,WeatherDisplay:10.37,2013-08-02 10:21:00,
2013-08-02 05:23:00,70.2,54.2,29.03,SSE,158,2.3,2.3,57,0.00,CLR,,0.00,WeatherDisplay:10.37,2013-08-02 10:23:00,
2013-08-02 05:24:00,70.2,54.2,29.03,SW,225,2.3,2.3,57,0.00,CLR,,0.00,WeatherDisplay:10.37,2013-08-02 10:24:00,
2013-08-02 05:26:00,70.2,54.2,29.03,WSW,248,2.3,2.3,57,0.00,CLR,,0.00,WeatherDisplay:10.37,2013-08-02 10:26:00,
2013-08-02 05:27:00,70.2,54.2,29.03,South,180,3.5,3.5,57,0.00,CLR,,0.00,WeatherDisplay:10.37,2013-08-02 10:27:00,
2013-08-02 05:28:00,70.2,54.2,29.00,WSW,248,2.9,2.9,57,0.00,CLR,,0.00,WeatherDisplay:10.37,2013-08-02 10:28:00,
2013-08-02 05:31:00,70.3,54.4,29.00,SSW,202,2.3,2.3,57,0.00,CLR,,0.00,WeatherDisplay:10.37,2013-08-02 10:31:00,
2013-08-02 05:32:00,70.3,54.9,29.00,South,180,2.3,2.3,58,0.00,CLR,,0.00,WeatherDisplay:10.37,2013-08-02 10:32:00,
2013-08-02 05:33:00,70.3,54.4,29.00,South,180,2.3,2.3,57,0.00,CLR,,0.00,WeatherDisplay:10.37,2013-08-02 10:33:00,
2013-08-02 05:36:00,70.3,54.4,29.00,SSE,158,2.3,2.3,57,0.00,CLR,,0.00,WeatherDisplay:10.37,2013-08-02 10:36:00,
2013-08-02 05:38:00,70.3,54.4,29.00,WSW,248,4.3,4.3,57,0.00,CLR,,0.00,WeatherDisplay:10.37,2013-08-02 10:38:00,
2013-08-02 05:39:00,70.3,54.4,29.00,SSW,202,4.6,4.6,57,0.00,CLR,,0.00,WeatherDisplay:10.37,2013-08-02 10:39:00,
2013-08-02 05:44:00,70.3,54.4,29.03,WNW,292,3.5,3.5,57,0.00,CLR,,0.00,WeatherDisplay:10.37,2013-08-02 10:44:00,
2013-08-02 05:45:00,70.3,54.4,29.03,SW,221,2.0,0.0,57,0.00,CLR,,0.00,WeatherDisplay:10.37,2013-08-02 10:45:00,
2013-08-02 05:47:00,70.3,54.9,29.03,SW,225,3.8,3.8,58,0.00,CLR,,0.00,WeatherDisplay:10.37,2013-08-02 10:47:00,
2013-08-02 05:50:00,70.3,54.4,29.03,SW,221,2.0,0.0,57,0.00,CLR,,0.00,WeatherDisplay:10.37,2013-08-02 10:50:00,
2013-08-02 05:51:00,70.3,54.4,29.03,SSW,202,2.3,2.3,57,0.00,CLR,,0.00,WeatherDisplay:10.37,2013-08-02 10:51:00,
2013-08-02 05:52:00,70.3,54.4,29.03,SSW,202,2.3,2.3,57,0.00,CLR,,0.00,WeatherDisplay:10.37,2013-08-02 10:52:00,
2013-08-02 05:53:00,70.2,54.2,29.03,SSW,202,3.5,3.5,57,0.00,CLR,,0.00,WeatherDisplay:10.37,2013-08-02 10:53:00,
2013-08-02 05:57:00,70.2,54.2,29.03,South,180,2.3,2.3,57,0.00,CLR,,0.00,WeatherDisplay:10.37,2013-08-02 10:57:00,
2013-08-02 05:58:00,70.2,54.2,29.03,SW,225,2.4,2.4,57,0.00,CLR,,0.00,WeatherDisplay:10.37,2013-08-02 10:58:00,
2013-08-02 05:59:00,70.2,54.2,29.03,WSW,248,3.5,3.5,57,0.00,CLR,,0.00,WeatherDisplay:10.37,2013-08-02 10:59:00,
2013-08-02 06:02:00,70.2,54.7,29.03,SW,225,2.6,2.6,58,0.00,CLR,,0.00,WeatherDisplay:10.37,2013-08-02 11:02:00,
2013-08-02 06:03:00,70.2,54.7,29.03,SSW,202,2.6,2.6,58,0.00,CLR,,0.00,WeatherDisplay:10.37,2013-08-02 11:03:00,
2013-08-02 06:06:00,70.0,54.5,29.03,SW,225,3.5,3.5,58,0.00,CLR,,0.00,WeatherDisplay:10.37,2013-08-02 11:06:00,
2013-08-02 06:07:00,70.0,54.0,29.03,SSE,158,2.6,2.6,57,0.00,CLR,,0.00,WeatherDisplay:10.37,2013-08-02 11:07:00,
2013-08-02 06:08:00,70.0,54.0,29.03,SW,225,2.3,2.3,57,0.00,CLR,,0.00,WeatherDisplay:10.37,2013-08-02 11:08:00,
2013-08-02 06:10:00,70.0,54.6,29.03,SW,214,2.0,0.0,58,0.00,CLR,,0.00,WeatherDisplay:10.37,2013-08-02 11:10:00,
2013-08-02 06:13:00,70.2,54.7,29.03,South,180,2.4,2.4,58,0.00,CLR,,0.00,WeatherDisplay:10.37,2013-08-02 11:13:00,
2013-08-02 06:14:00,70.2,54.7,29.03,SE,135,2.3,2.3,58,0.00,CLR,,0.00,WeatherDisplay:10.37,2013-08-02 11:14:00,
2013-08-02 06:16:00,70.2,54.7,29.03,SW,225,2.9,2.9,58,0.00,CLR,,0.00,WeatherDisplay:10.37,2013-08-02 11:16:00,
2013-08-02 06:18:00,70.2,54.7,29.03,WSW,248,3.5,3.5,58,0.00,CLR,,0.00,WeatherDisplay:10.37,2013-08-02 11:18:00,
2013-08-02 06:21:00,70.2,54.7,29.03,SSE,158,2.6,2.6,58,0.00,CLR,,0.00,WeatherDisplay:10.37,2013-08-02 11:21:00,
2013-08-02 06:22:00,70.2,54.7,29.03,WSW,248,2.3,2.3,58,0.00,CLR,,0.00,WeatherDisplay:10.37,2013-08-02 11:22:00,
2013-08-02 06:23:00,70.2,54.7,29.03,SW,225,2.3,2.3,58,0.00,CLR,,0.00,WeatherDisplay:10.37,2013-08-02 11:23:00,
2013-08-02 06:24:00,70.2,54.7,29.03,West,270,2.3,2.3,58,0.00,CLR,,0.00,WeatherDisplay:10.37,2013-08-02 11:24:00,
2013-08-02 06:26:00,70.2,54.7,29.03,SSE,158,2.3,2.3,58,0.00,CLR,,0.00,WeatherDisplay:10.37,2013-08-02 11:26:00,
2013-08-02 06:28:00,70.2,54.7,29.03,SSW,202,2.3,2.3,58,0.00,CLR,,0.00,WeatherDisplay:10.37,2013-08-02 11:28:00,
2013-08-02 06:30:00,70.2,55.2,29.03,South,180,2.3,2.3,59,0.00,CLR,,0.00,WeatherDisplay:10.37,2013-08-02 11:30:00,
2013-08-02 06:31:00,70.2,55.2,29.03,SSW,202,2.3,2.3,59,0.00,CLR,,0.00,WeatherDisplay:10.37,2013-08-02 11:31:00,
2013-08-02 06:33:00,70.2,54.7,29.03,SSW,202,1.1,0.0,58,0.00,CLR,,0.00,WeatherDisplay:10.37,2013-08-02 11:33:00,
2013-08-02 06:34:00,70.2,54.7,29.03,SSW,202,1.1,1.1,58,0.00,CLR,,0.00,WeatherDisplay:10.37,2013-08-02 11:34:00,
2013-08-02 06:35:00,70.2,54.7,29.03,WSW,248,1.1,1.1,58,0.00,CLR,,0.00,WeatherDisplay:10.37,2013-08-02 11:35:00,
2013-08-02 06:36:00,70.2,54.7,29.03,WSW,248,1.1,1.1,58,0.00,CLR,,0.00,WeatherDisplay:10.37,2013-08-02 11:36:00,
2013-08-02 06:39:00,70.2,54.7,29.03,SW,225,3.5,3.5,58,0.00,CLR,,0.00,WeatherDisplay:10.37,2013-08-02 11:39:00,
2013-08-02 06:40:00,70.3,54.9,29.03,West,270,3.5,3.5,58,0.00,CLR,,0.00,WeatherDisplay:10.37,2013-08-02 11:40:00,
2013-08-02 06:42:00,70.3,54.9,29.03,SW,225,2.3,2.3,58,0.00,CLR,,0.00,WeatherDisplay:10.37,2013-08-02 11:42:00,
2013-08-02 06:44:00,70.5,55.0,29.03,SSW,202,2.3,2.3,58,0.00,CLR,,0.00,WeatherDisplay:10.37,2013-08-02 11:44:00,
2013-08-02 06:45:00,70.5,55.0,29.03,WSW,248,1.1,1.4,58,0.00,CLR,,0.00,WeatherDisplay:10.37,2013-08-02 11:45:00,
2013-08-02 06:47:00,70.5,55.0,29.03,West,270,2.3,2.3,58,0.00,CLR,,0.00,WeatherDisplay:10.37,2013-08-02 11:47:00,
2013-08-02 06:49:00,70.5,55.0,29.03,WSW,248,4.6,4.6,58,0.00,CLR,,0.00,WeatherDisplay:10.37,2013-08-02 11:49:00,
2013-08-02 06:50:00,70.7,54.7,29.03,SW,225,4.6,4.6,57,0.00,CLR,,0.00,WeatherDisplay:10.37,2013-08-02 11:50:00,
2013-08-02 06:51:00,70.7,54.7,29.03,South,180,4.6,4.6,57,0.00,CLR,,0.00,WeatherDisplay:10.37,2013-08-02 11:51:00,
2013-08-02 06:53:00,70.7,54.7,29.03,West,270,1.1,1.1,57,0.00,CLR,,0.00,WeatherDisplay:10.37,2013-08-02 11:53:00,
2013-08-02 06:54:00,70.7,54.7,29.03,WSW,248,2.3,2.3,57,0.00,CLR,,0.00,WeatherDisplay:10.37,2013-08-02 11:54:00,
2013-08-02 06:57:00,70.9,54.9,29.03,SSW,202,3.5,3.5,57,0.00,CLR,,0.00,WeatherDisplay:10.37,2013-08-02 11:57:00,
2013-08-02 06:58:00,70.9,54.9,29.03,SSW,202,2.0,2.0,57,0.00,CLR,,0.00,WeatherDisplay:10.37,2013-08-02 11:58:00,
2013-08-02 07:00:00,70.9,54.9,29.03,SW,222,1.0,0.0,57,0.00,CLR,,0.00,WeatherDisplay:10.37,2013-08-02 12:00:00,
2013-08-02 07:02:00,71.1,55.1,29.03,West,270,4.6,4.6,57,0.00,CLR,,0.00,WeatherDisplay:10.37,2013-08-02 12:02:00,
2013-08-02 07:03:00,71.1,55.1,29.03,WSW,248,4.6,4.6,57,0.00,CLR,,0.00,WeatherDisplay:10.37,2013-08-02 12:03:00,
2013-08-02 07:04:00,71.1,55.1,29.03,SSE,158,3.8,3.8,57,0.00,CLR,,0.00,WeatherDisplay:10.37,2013-08-02 12:04:00,
2013-08-02 07:05:00,71.1,55.1,29.03,SW,229,2.0,0.0,57,0.00,CLR,,0.00,WeatherDisplay:10.37,2013-08-02 12:05:00,
2013-08-02 07:08:00,71.2,55.2,29.03,WNW,292,3.5,3.5,57,0.00,CLR,,0.00,WeatherDisplay:10.37,2013-08-02 12:08:00,
2013-08-02 07:09:00,71.2,55.2,29.03,SW,225,3.5,3.5,57,0.00,CLR,,0.00,WeatherDisplay:10.37,2013-08-02 12:09:00,
2013-08-02 07:10:00,71.2,55.2,29.03,SW,233,2.0,0.0,57,0.00,CLR,,0.00,WeatherDisplay:10.37,2013-08-02 12:10:00,
2013-08-02 07:11:00,71.2,55.2,29.03,WNW,292,2.3,2.3,57,0.00,CLR,,0.00,WeatherDisplay:10.37,2013-08-02 12:11:00,
2013-08-02 07:12:00,71.2,55.2,29.03,SW,225,4.6,4.6,57,0.00,CLR,,0.00,WeatherDisplay:10.37,2013-08-02 12:12:00,
2013-08-02 07:14:00,71.2,55.2,29.03,SSW,202,2.6,2.6,57,0.00,CLR,,0.00,WeatherDisplay:10.37,2013-08-02 12:14:00,
2013-08-02 07:15:00,71.4,55.4,29.03,West,270,2.9,2.9,57,0.00,CLR,,0.00,WeatherDisplay:10.37,2013-08-02 12:15:00,
2013-08-02 07:18:00,71.4,55.4,29.03,West,270,4.6,4.6,57,0.00,CLR,,0.00,WeatherDisplay:10.37,2013-08-02 12:18:00,
2013-08-02 07:19:00,71.4,55.4,29.03,SW,225,5.4,5.4,57,0.00,CLR,,0.00,WeatherDisplay:10.37,2013-08-02 12:19:00,
2013-08-02 07:20:00,71.4,55.4,29.03,SW,227,2.0,0.0,57,0.00,CLR,,0.00,WeatherDisplay:10.37,2013-08-02 12:20:00,
2013-08-02 07:23:00,71.6,55.1,29.03,WSW,248,9.2,9.2,56,0.00,CLR,,0.00,WeatherDisplay:10.37,2013-08-02 12:23:00,
2013-08-02 07:24:00,71.6,55.1,29.03,WSW,248,9.2,9.2,56,0.00,CLR,,0.00,WeatherDisplay:10.37,2013-08-02 12:24:00,
2013-08-02 07:25:00,71.6,55.6,29.03,SW,232,3.0,0.0,57,0.00,CLR,,0.00,WeatherDisplay:10.37,2013-08-02 12:25:00,
2013-08-02 07:26:00,71.6,55.1,29.03,SE,135,4.6,4.6,56,0.00,CLR,,0.00,WeatherDisplay:10.37,2013-08-02 12:26:00,
2013-08-02 07:29:00,71.8,55.2,29.03,NW,315,5.8,5.8,56,0.00,CLR,,0.00,WeatherDisplay:10.37,2013-08-02 12:29:00,
2013-08-02 07:31:00,72.0,55.4,29.03,WNW,292,5.8,5.8,56,0.00,CLR,,0.00,WeatherDisplay:10.37,2013-08-02 12:31:00,
2013-08-02 07:32:00,72.0,55.4,29.03,West,270,5.8,5.8,56,0.00,CLR,,0.00,WeatherDisplay:10.37,2013-08-02 12:32:00,
2013-08-02 07:33:00,72.0,55.4,29.03,South,180,4.6,4.6,56,0.00,CLR,,0.00,WeatherDisplay:10.37,2013-08-02 12:33:00,
2013-08-02 07:34:00,72.1,55.6,29.03,SW,225,4.9,4.9,56,0.00,CLR,,0.00,WeatherDisplay:10.37,2013-08-02 12:34:00,
2013-08-02 07:35:00,72.1,55.6,29.03,WSW,249,2.0,0.0,56,0.00,CLR,,0.00,WeatherDisplay:10.37,2013-08-02 12:35:00,
2013-08-02 07:36:00,72.1,55.6,29.03,West,270,4.6,4.6,56,0.00,CLR,,0.00,WeatherDisplay:10.37,2013-08-02 12:36:00,
2013-08-02 07:37:00,72.1,55.6,29.03,WNW,292,4.6,4.6,56,0.00,CLR,,0.00,WeatherDisplay:10.37,2013-08-02 12:37:00,
2013-08-02 07:38:00,72.1,55.6,29.03,WSW,248,4.6,4.6,56,0.00,CLR,,0.00,WeatherDisplay:10.37,2013-08-02 12:38:00,
2013-08-02 07:40:00,72.1,55.6,29.03,SW,225,5.8,5.8,56,0.00,CLR,,0.00,WeatherDisplay:10.37,2013-08-02 12:40:00,
2013-08-02 07:41:00,72.1,55.6,29.03,WSW,248,6.9,6.9,56,0.00,CLR,,0.00,WeatherDisplay:10.37,2013-08-02 12:41:00,
2013-08-02 07:42:00,72.3,55.7,29.03,WSW,248,3.5,3.5,56,0.00,CLR,,0.00,WeatherDisplay:10.37,2013-08-02 12:42:00,
2013-08-02 07:43:00,72.3,55.7,29.00,WSW,248,3.5,3.5,56,0.00,CLR,,0.00,WeatherDisplay:10.37,2013-08-02 12:43:00,
2013-08-02 07:45:00,72.3,55.7,29.00,WNW,292,7.8,7.8,56,0.00,CLR,,0.00,WeatherDisplay:10.37,2013-08-02 12:45:00,
2013-08-02 07:48:00,72.3,55.7,29.00,NW,315,3.5,3.5,56,0.00,CLR,,0.00,WeatherDisplay:10.37,2013-08-02 12:48:00,
2013-08-02 07:49:00,72.5,55.9,29.00,West,270,3.5,3.5,56,0.00,CLR,,0.00,WeatherDisplay:10.37,2013-08-02 12:49:00,
2013-08-02 07:50:00,72.5,55.9,29.00,SW,225,2.3,2.3,56,0.00,CLR,,0.00,WeatherDisplay:10.37,2013-08-02 12:50:00,
2013-08-02 07:54:00,72.7,56.1,29.00,SE,135,2.4,2.4,56,0.00,CLR,,0.00,WeatherDisplay:10.37,2013-08-02 12:54:00,
2013-08-02 07:55:00,72.7,56.1,29.00,WSW,243,1.0,0.0,56,0.00,CLR,,0.00,WeatherDisplay:10.37,2013-08-02 12:55:00,
2013-08-02 07:56:00,72.7,56.1,29.00,WNW,292,4.6,4.6,56,0.00,CLR,,0.00,WeatherDisplay:10.37,2013-08-02 12:56:00,
2013-08-02 07:57:00,72.7,56.1,29.00,SW,225,2.3,0.0,56,0.00,CLR,,0.00,WeatherDisplay:10.37,2013-08-02 12:57:00,
2013-08-02 08:00:00,72.8,56.2,29.03,WSW,249,2.0,0.0,56,0.00,CLR,,0.00,WeatherDisplay:10.37,2013-08-02 13:00:00,
2013-08-02 08:01:00,72.9,56.2,29.03,West,270,4.3,4.3,56,0.00,CLR,,0.00,WeatherDisplay:10.37,2013-08-02 13:01:00,
2013-08-02 08:02:00,72.9,56.2,29.03,WSW,248,4.6,4.6,56,0.00,CLR,,0.00,WeatherDisplay:10.37,2013-08-02 13:02:00,
2013-08-02 08:03:00,72.9,56.2,29.03,South,180,5.9,5.9,56,0.00,CLR,,0.00,WeatherDisplay:10.37,2013-08-02 13:03:00,
2013-08-02 08:06:00,73.0,56.4,29.03,East,90,4.6,4.6,56,0.00,CLR,,0.00,WeatherDisplay:10.37,2013-08-02 13:06:00,
2013-08-02 08:07:00,73.0,56.4,29.03,SW,225,4.6,4.6,56,0.00,CLR,,0.00,WeatherDisplay:10.37,2013-08-02 13:07:00,
2013-08-02 08:08:00,73.0,56.4,29.03,WSW,248,2.3,2.3,56,0.00,CLR,,0.00,WeatherDisplay:10.37,2013-08-02 13:08:00,
2013-08-02 08:12:00,73.4,56.2,29.03,West,270,4.6,4.6,55,0.00,CLR,,0.00,WeatherDisplay:10.37,2013-08-02 13:12:00,
2013-08-02 08:13:00,73.4,56.7,29.03,SSW,202,4.7,4.7,56,0.00,CLR,,0.00,WeatherDisplay:10.37,2013-08-02 13:13:00,
2013-08-02 08:15:00,73.6,56.9,29.03,SW,225,6.0,6.0,56,0.00,CLR,,0.00,WeatherDisplay:10.37,2013-08-02 13:15:00,
2013-08-02 08:17:00,73.8,56.6,29.03,NNW,338,5.8,5.8,55,0.00,CLR,,0.00,WeatherDisplay:10.37,2013-08-02 13:17:00,
2013-08-02 08:18:00,73.8,56.6,29.03,South,180,3.5,3.5,55,0.00,CLR,,0.00,WeatherDisplay:10.37,2013-08-02 13:18:00,
2013-08-02 08:19:00,73.8,56.6,29.03,WSW,248,3.5,3.5,55,0.00,CLR,,0.00,WeatherDisplay:10.37,2013-08-02 13:19:00,
2013-08-02 08:22:00,73.9,56.8,29.03,WSW,248,4.6,4.6,55,0.00,CLR,,0.00,WeatherDisplay:10.37,2013-08-02 13:22:00,
2013-08-02 08:23:00,74.1,56.9,29.03,South,180,3.5,3.5,55,0.00,CLR,,0.00,WeatherDisplay:10.37,2013-08-02 13:23:00,
2013-08-02 08:24:00,74.3,56.6,29.03,West,270,2.4,2.4,54,0.00,CLR,,0.00,WeatherDisplay:10.37,2013-08-02 13:24:00,
2013-08-02 08:25:00,74.3,56.6,29.03,West,270,2.3,2.3,54,0.00,CLR,,0.00,WeatherDisplay:10.37,2013-08-02 13:25:00,
2013-08-02 08:27:00,74.5,56.7,29.03,WSW,248,4.6,4.6,54,0.00,CLR,,0.00,WeatherDisplay:10.37,2013-08-02 13:27:00,
2013-08-02 08:29:00,74.7,56.9,29.06,SW,225,3.3,3.3,54,0.00,CLR,,0.00,WeatherDisplay:10.37,2013-08-02 13:29:00,
2013-08-02 08:30:00,74.7,56.4,29.06,WNW,292,3.5,3.5,53,0.00,CLR,,0.00,WeatherDisplay:10.37,2013-08-02 13:30:00,
2013-08-02 08:34:00,75.0,57.2,29.06,SW,225,2.3,2.3,54,0.00,CLR,,0.00,WeatherDisplay:10.37,2013-08-02 13:34:00,
2013-08-02 08:35:00,75.0,57.2,29.06,WSW,242,1.0,0.0,54,0.00,CLR,,0.00,WeatherDisplay:10.37,2013-08-02 13:35:00,
2013-08-02 08:36:00,75.2,56.9,29.06,West,270,3.5,3.5,53,0.00,CLR,,0.00,WeatherDisplay:10.37,2013-08-02 13:36:00,
2013-08-02 08:38:00,75.2,56.4,29.06,WNW,292,4.6,4.6,52,0.00,CLR,,0.00,WeatherDisplay:10.37,2013-08-02 13:38:00,
2013-08-02 08:39:00,75.2,56.4,29.06,WSW,248,5.8,5.8,52,0.00,CLR,,0.00,WeatherDisplay:10.37,2013-08-02 13:39:00,
2013-08-02 08:41:00,75.4,56.5,29.06,SW,225,4.6,4.6,52,0.00,CLR,,0.00,WeatherDisplay:10.37,2013-08-02 13:41:00,
2013-08-02 08:43:00,75.6,56.7,29.03,NW,315,2.3,0.0,52,0.00,CLR,,0.00,WeatherDisplay:10.37,2013-08-02 13:43:00,
2013-08-02 08:44:00,75.6,56.7,29.03,SE,135,4.6,4.6,52,0.00,CLR,,0.00,WeatherDisplay:10.37,2013-08-02 13:44:00,
2013-08-02 08:45:00,75.6,56.7,29.03,WSW,248,3.0,0.0,52,0.00,CLR,,0.00,WeatherDisplay:10.37,2013-08-02 13:45:00,
2013-08-02 08:48:00,75.9,56.5,29.03,WSW,248,3.5,3.5,51,0.00,CLR,,0.00,WeatherDisplay:10.37,2013-08-02 13:48:00,
2013-08-02 08:49:00,76.1,56.7,29.03,SSE,158,3.5,3.5,51,0.00,CLR,,0.00,WeatherDisplay:10.37,2013-08-02 13:49:00,
2013-08-02 08:50:00,76.1,56.7,29.03,WSW,251,2.0,0.0,51,0.00,CLR,,0.00,WeatherDisplay:10.37,2013-08-02 13:50:00,
2013-08-02 08:51:00,76.3,56.8,29.03,WNW,292,4.6,4.6,51,0.00,CLR,,0.00,WeatherDisplay:10.37,2013-08-02 13:51:00,
2013-08-02 08:54:00,77.0,56.9,29.03,WSW,248,5.4,5.4,50,0.00,CLR,,0.00,WeatherDisplay:10.37,2013-08-02 13:54:00,
2013-08-02 08:55:00,77.0,56.9,29.03,West,263,3.0,0.0,50,0.00,CLR,,0.00,WeatherDisplay:10.37,2013-08-02 13:55:00,
2013-08-02 08:56:00,77.4,57.3,29.03,WNW,292,8.1,8.1,50,0.00,CLR,,0.00,WeatherDisplay:10.37,2013-08-02 13:56:00,
2013-08-02 08:57:00,77.5,56.9,29.03,WNW,292,8.1,8.1,49,0.00,CLR,,0.00,WeatherDisplay:10.37,2013-08-02 13:57:00,
2013-08-02 08:59:00,77.7,57.0,29.03,WSW,248,5.8,5.8,49,0.00,CLR,,0.00,WeatherDisplay:10.37,2013-08-02 13:59:00,
2013-08-02 09:01:00,77.7,55.9,29.03,West,270,8.1,8.1,47,0.00,CLR,,0.00,WeatherDisplay:10.37,2013-08-02 14:01:00,
2013-08-02 09:04:00,78.1,56.2,29.03,WNW,292,10.4,10.4,47,0.00,CLR,,0.00,WeatherDisplay:10.37,2013-08-02 14:04:00,
2013-08-02 09:05:00,78.1,56.2,29.03,WSW,248,5.8,5.8,47,0.00,CLR,,0.00,WeatherDisplay:10.37,2013-08-02 14:05:00,
2013-08-02 09:07:00,78.4,56.5,29.03,West,270,8.1,8.1,47,0.00,CLR,,0.00,WeatherDisplay:10.37,2013-08-02 14:07:00,
2013-08-02 09:09:00,78.6,55.5,29.03,WNW,292,4.6,4.6,45,0.00,CLR,,0.00,WeatherDisplay:10.37,2013-08-02 14:09:00,
2013-08-02 09:10:00,78.6,55.5,29.03,West,281,3.0,0.0,45,0.00,CLR,,0.00,WeatherDisplay:10.37,2013-08-02 14:10:00,
2013-08-02 09:11:00,79.0,55.8,29.03,WNW,292,5.9,5.9,45,0.00,CLR,,0.00,WeatherDisplay:10.37,2013-08-02 14:11:00,
2013-08-02 09:12:00,79.2,56.6,29.03,WNW,292,5.8,5.8,46,0.00,CLR,,0.00,WeatherDisplay:10.37,2013-08-02 14:12:00,
2013-08-02 09:14:00,79.3,56.8,29.06,WSW,248,8.1,8.1,46,0.00,CLR,,0.00,WeatherDisplay:10.37,2013-08-02 14:14:00,
2013-08-02 09:15:00,79.3,54.9,29.06,WNW,292,12.1,12.1,43,0.00,CLR,,0.00,WeatherDisplay:10.37,2013-08-02 14:15:00,
2013-08-02 09:16:00,79.5,55.7,29.06,NNW,338,11.5,11.5,44,0.00,CLR,,0.00,WeatherDisplay:10.37,2013-08-02 14:16:00,
2013-08-02 09:17:00,79.9,56.0,29.06,NNW,338,6.9,6.9,44,0.00,CLR,,0.00,WeatherDisplay:10.37,2013-08-02 14:17:00,
2013-08-02 09:19:00,79.9,55.4,29.06,WNW,292,8.1,8.1,43,0.00,CLR,,0.00,WeatherDisplay:10.37,2013-08-02 14:19:00,
2013-08-02 09:20:00,79.9,55.4,29.06,West,278,5.0,0.0,43,0.00,CLR,,0.00,WeatherDisplay:10.37,2013-08-02 14:20:00,
2013-08-02 09:21:00,80.1,54.9,29.06,WSW,248,6.0,6.0,42,0.00,CLR,,0.00,WeatherDisplay:10.37,2013-08-02 14:21:00,
2013-08-02 09:22:00,80.2,55.7,29.06,WSW,248,5.8,5.8,43,0.00,CLR,,0.00,WeatherDisplay:10.37,2013-08-02 14:22:00,
2013-08-02 09:24:00,80.6,55.4,29.06,West,270,5.8,5.8,42,0.00,CLR,,0.00,WeatherDisplay:10.37,2013-08-02 14:24:00,
2013-08-02 09:25:00,80.6,55.4,29.06,West,270,6.4,6.4,42,0.00,CLR,,0.00,WeatherDisplay:10.37,2013-08-02 14:25:00,
2013-08-02 09:28:00,81.0,55.7,29.00,WNW,292,8.1,8.1,42,0.00,CLR,,0.00,WeatherDisplay:10.37,2013-08-02 14:28:00,
2013-08-02 09:30:00,81.0,55.7,29.00,West,270,8.1,8.1,42,0.00,CLR,,0.00,WeatherDisplay:10.37,2013-08-02 14:30:00,
2013-08-02 09:32:00,81.0,55.0,29.00,West,270,6.9,6.9,41,0.00,CLR,,0.00,WeatherDisplay:10.37,2013-08-02 14:32:00,
2013-08-02 09:33:00,80.6,54.0,29.00,West,270,8.1,8.1,40,0.00,CLR,,0.00,WeatherDisplay:10.37,2013-08-02 14:33:00,
2013-08-02 09:34:00,80.6,54.0,29.00,West,270,8.1,8.1,40,0.00,CLR,,0.00,WeatherDisplay:10.37,2013-08-02 14:34:00,
2013-08-02 09:36:00,81.0,55.0,29.00,WSW,248,8.1,8.1,41,0.00,CLR,,0.00,WeatherDisplay:10.37,2013-08-02 14:36:00,
2013-08-02 09:37:00,81.0,55.0,29.00,West,270,8.1,8.1,41,0.00,CLR,,0.00,WeatherDisplay:10.37,2013-08-02 14:37:00,
2013-08-02 09:39:00,81.3,55.4,29.00,WSW,248,6.9,6.9,41,0.00,CLR,,0.00,WeatherDisplay:10.37,2013-08-02 14:39:00,
2013-08-02 09:40:00,81.3,54.7,29.00,West,278,5.0,0.0,40,0.00,CLR,,0.00,WeatherDisplay:10.37,2013-08-02 14:40:00,
2013-08-02 09:42:00,81.3,54.7,29.00,West,270,6.0,6.0,40,0.00,CLR,,0.00,WeatherDisplay:10.37,2013-08-02 14:42:00,
2013-08-02 09:45:00,81.5,54.8,29.03,NW,315,6.9,6.9,40,0.00,CLR,,0.00,WeatherDisplay:10.37,2013-08-02 14:45:00,
2013-08-02 09:49:00,81.9,55.2,29.03,West,270,5.8,5.8,40,0.00,CLR,,0.00,WeatherDisplay:10.37,2013-08-02 14:49:00,
2013-08-02 09:50:00,81.9,55.2,29.03,NW,315,5.8,5.8,40,0.00,CLR,,0.00,WeatherDisplay:10.37,2013-08-02 14:50:00,
2013-08-02 09:52:00,82.0,55.3,29.03,NW,315,8.1,8.1,40,0.00,CLR,,0.00,WeatherDisplay:10.37,2013-08-02 14:52:00,
2013-08-02 09:54:00,82.2,54.8,29.03,WNW,292,6.9,6.9,39,0.00,CLR,,0.00,WeatherDisplay:10.37,2013-08-02 14:54:00,
2013-08-02 09:55:00,82.2,54.8,29.03,WSW,248,6.9,6.9,39,0.00,CLR,,0.00,WeatherDisplay:10.37,2013-08-02 14:55:00,
2013-08-02 09:57:00,82.4,55.0,29.03,SW,225,7.6,7.6,39,0.00,CLR,,0.00,WeatherDisplay:10.37,2013-08-02 14:57:00,
2013-08-02 09:59:00,82.4,55.0,29.03,WNW,292,5.4,5.4,39,0.00,CLR,,0.00,WeatherDisplay:10.37,2013-08-02 14:59:00,
2013-08-02 10:00:00,82.4,55.7,29.03,WSW,248,5.8,5.8,40,0.00,CLR,,0.00,WeatherDisplay:10.37,2013-08-02 15:00:00,
2013-08-02 10:03:00,82.9,56.1,29.03,West,270,4.6,4.6,40,0.00,CLR,,0.00,WeatherDisplay:10.37,2013-08-02 15:03:00,
2013-08-02 10:04:00,82.9,54.7,29.03,WNW,292,5.8,5.8,38,0.00,CLR,,0.00,WeatherDisplay:10.37,2013-08-02 15:04:00,
2013-08-02 10:05:00,82.9,55.4,29.03,NW,315,5.8,5.8,39,0.00,CLR,,0.00,WeatherDisplay:10.37,2013-08-02 15:05:00,
2013-08-02 10:07:00,83.1,55.6,29.03,WNW,292,5.8,5.8,39,0.00,CLR,,0.00,WeatherDisplay:10.37,2013-08-02 15:07:00,
2013-08-02 10:10:00,83.1,54.1,29.03,WNW,292,7.1,7.1,37,0.00,CLR,,0.00,WeatherDisplay:10.37,2013-08-02 15:10:00,
2013-08-02 10:11:00,83.1,54.1,29.03,NW,315,8.1,8.1,37,0.00,CLR,,0.00,WeatherDisplay:10.37,2013-08-02 15:11:00,
2013-08-02 10:14:00,83.1,55.6,29.03,West,270,3.5,4.0,39,0.00,CLR,,0.00,WeatherDisplay:10.37,2013-08-02 15:14:00,
2013-08-02 10:15:00,83.2,55.7,29.03,West,281,5.0,0.0,39,0.00,CLR,,0.00,WeatherDisplay:10.37,2013-08-02 15:15:00,
2013-08-02 10:16:00,83.3,53.6,29.03,NW,315,8.1,8.1,36,0.00,CLR,,0.00,WeatherDisplay:10.37,2013-08-02 15:16:00,
2013-08-02 10:18:00,83.3,54.3,29.03,West,270,6.9,6.9,37,0.00,CLR,,0.00,WeatherDisplay:10.37,2013-08-02 15:18:00,
2013-08-02 10:21:00,83.5,54.5,29.03,West,270,5.8,5.8,37,0.00,CLR,,0.00,WeatherDisplay:10.37,2013-08-02 15:21:00,
2013-08-02 10:22:00,83.5,54.5,29.03,WNW,292,3.5,3.5,37,0.00,CLR,,0.00,WeatherDisplay:10.37,2013-08-02 15:22:00,
2013-08-02 10:23:00,83.8,54.8,29.03,NW,315,5.8,5.8,37,0.00,CLR,,0.00,WeatherDisplay:10.37,2013-08-02 15:23:00,
2013-08-02 10:24:00,83.8,54.8,29.03,WNW,292,5.8,5.8,37,0.00,CLR,,0.00,WeatherDisplay:10.37,2013-08-02 15:24:00,
2013-08-02 10:27:00,84.0,54.2,29.03,WSW,248,5.8,5.8,36,0.00,CLR,,0.00,WeatherDisplay:10.37,2013-08-02 15:27:00,
2013-08-02 10:28:00,83.8,53.3,29.06,SW,225,6.2,6.2,35,0.00,CLR,,0.00,WeatherDisplay:10.37,2013-08-02 15:28:00,
2013-08-02 10:29:00,84.0,54.2,29.06,WNW,292,5.8,5.8,36,0.00,CLR,,0.00,WeatherDisplay:10.37,2013-08-02 15:29:00,
2013-08-02 10:31:00,84.0,54.2,29.06,WSW,248,5.9,5.9,36,0.00,CLR,,0.00,WeatherDisplay:10.37,2013-08-02 15:31:00,
2013-08-02 10:32:00,84.0,54.2,29.06,NW,315,5.8,5.8,36,0.00,CLR,,0.00,WeatherDisplay:10.37,2013-08-02 15:32:00,
2013-08-02 10:33:00,84.0,54.2,29.06,SW,225,5.8,5.8,36,0.00,CLR,,0.00,WeatherDisplay:10.37,2013-08-02 15:33:00,
2013-08-02 10:35:00,84.0,54.2,29.06,WNW,292,4.6,4.6,36,0.00,CLR,,0.00,WeatherDisplay:10.37,2013-08-02 15:35:00,
2013-08-02 10:38:00,84.2,52.8,29.06,West,270,2.9,2.9,34,0.00,CLR,,0.00,WeatherDisplay:10.37,2013-08-02 15:38:00,
2013-08-02 10:39:00,84.2,53.6,29.06,WNW,292,5.8,5.8,35,0.00,CLR,,0.00,WeatherDisplay:10.37,2013-08-02 15:39:00,
2013-08-02 10:40:00,84.2,53.6,29.06,West,270,5.8,5.8,35,0.00,CLR,,0.00,WeatherDisplay:10.37,2013-08-02 15:40:00,
2013-08-02 10:41:00,84.4,53.7,29.06,WNW,292,2.6,2.6,35,0.00,CLR,,0.00,WeatherDisplay:10.37,2013-08-02 15:41:00,
2013-08-02 10:44:00,84.4,52.1,29.03,NW,315,4.6,4.6,33,0.00,CLR,,0.00,WeatherDisplay:10.37,2013-08-02 15:44:00,
2013-08-02 10:45:00,84.5,52.2,29.03,WNW,291,3.0,0.0,33,0.00,CLR,,0.00,WeatherDisplay:10.37,2013-08-02 15:45:00,
2013-08-02 10:47:00,84.7,53.3,29.03,West,270,4.6,4.6,34,0.00,CLR,,0.00,WeatherDisplay:10.37,2013-08-02 15:47:00,
2013-08-02 10:48:00,84.7,53.3,29.03,SW,225,4.6,4.6,34,0.00,CLR,,0.00,WeatherDisplay:10.37,2013-08-02 15:48:00,
2013-08-02 10:50:00,84.9,53.4,29.03,West,270,2.3,2.3,34,0.00,CLR,,0.00,WeatherDisplay:10.37,2013-08-02 15:50:00,
2013-08-02 10:51:00,84.9,53.4,29.03,ENE,68,2.3,2.3,34,0.00,CLR,,0.00,WeatherDisplay:10.37,2013-08-02 15:51:00,
2013-08-02 10:53:00,84.9,53.4,29.03,WSW,248,6.2,6.2,34,0.00,CLR,,0.00,WeatherDisplay:10.37,2013-08-02 15:53:00,
2013-08-02 10:54:00,84.9,53.4,29.03,SW,225,7.6,7.6,34,0.00,CLR,,0.00,WeatherDisplay:10.37,2013-08-02 15:54:00,
2013-08-02 10:56:00,84.7,51.6,29.03,WSW,248,5.8,5.8,32,0.00,CLR,,0.00,WeatherDisplay:10.37,2013-08-02 15:56:00,
2013-08-02 10:58:00,84.9,52.6,29.03,SW,225,4.6,4.6,33,0.00,CLR,,0.00,WeatherDisplay:10.37,2013-08-02 15:58:00,
2013-08-02 10:59:00,84.9,52.6,29.03,NW,315,6.0,6.0,33,0.00,CLR,,0.00,WeatherDisplay:10.37,2013-08-02 15:59:00,
2013-08-02 11:01:00,85.1,51.9,29.03,WNW,292,8.1,8.1,32,0.00,CLR,,0.00,WeatherDisplay:10.37,2013-08-02 16:01:00,
2013-08-02 11:02:00,85.3,51.2,29.03,West,270,5.8,5.8,31,0.00,CLR,,0.00,WeatherDisplay:10.37,2013-08-02 16:02:00,
2013-08-02 11:03:00,85.3,52.1,29.03,WSW,248,4.6,4.6,32,0.00,CLR,,0.00,WeatherDisplay:10.37,2013-08-02 16:03:00,
2013-08-02 11:07:00,85.3,52.1,29.03,WNW,292,6.9,6.9,32,0.00,CLR,,0.00,WeatherDisplay:10.37,2013-08-02 16:07:00,
2013-08-02 11:08:00,85.3,52.1,29.03,WNW,292,6.9,6.9,32,0.00,CLR,,0.00,WeatherDisplay:10.37,2013-08-02 16:08:00,
2013-08-02 11:09:00,85.5,52.2,29.03,West,270,6.9,6.9,32,0.00,CLR,,0.00,WeatherDisplay:10.37,2013-08-02 16:09:00,
2013-08-02 11:10:00,85.3,51.2,29.03,WNW,292,4.6,4.6,31,0.00,CLR,,0.00,WeatherDisplay:10.37,2013-08-02 16:10:00,
2013-08-02 11:12:00,85.8,52.5,29.03,WNW,292,5.8,5.8,32,0.00,CLR,,0.00,WeatherDisplay:10.37,2013-08-02 16:12:00,
2013-08-02 11:14:00,86.2,51.1,29.06,NNW,338,2.4,2.4,30,0.00,CLR,,0.00,WeatherDisplay:10.37,2013-08-02 16:14:00,
2013-08-02 11:15:00,86.2,51.1,29.06,WNW,290,2.0,0.0,30,0.00,CLR,,0.00,WeatherDisplay:10.37,2013-08-02 16:15:00,
2013-08-02 11:16:00,86.2,52.0,29.06,WNW,292,5.9,5.9,31,0.00,CLR,,0.00,WeatherDisplay:10.37,2013-08-02 16:16:00,
2013-08-02 11:17:00,86.2,52.0,29.06,NW,315,5.8,5.8,31,0.00,CLR,,0.00,WeatherDisplay:10.37,2013-08-02 16:17:00,
2013-08-02 11:19:00,86.2,51.1,29.06,SW,225,3.5,3.5,30,0.00,CLR,,0.00,WeatherDisplay:10.37,2013-08-02 16:19:00,
2013-08-02 11:21:00,85.6,50.6,29.06,WSW,248,3.5,3.5,30,0.00,CLR,,0.00,WeatherDisplay:10.37,2013-08-02 16:21:00,
2013-08-02 11:22:00,85.8,50.8,29.06,WSW,248,3.5,3.6,30,0.00,CLR,,0.00,WeatherDisplay:10.37,2013-08-02 16:22:00,
2013-08-02 11:23:00,85.8,50.8,29.06,WNW,292,4.6,4.6,30,0.00,CLR,,0.00,WeatherDisplay:10.37,2013-08-02 16:23:00,
2013-08-02 11:25:00,85.8,50.8,29.06,West,278,2.0,0.0,30,0.00,CLR,,0.00,WeatherDisplay:10.37,2013-08-02 16:25:00,
2013-08-02 11:26:00,85.8,50.8,29.06,WNW,292,4.6,4.6,30,0.00,CLR,,0.00,WeatherDisplay:10.37,2013-08-02 16:26:00,
2013-08-02 11:29:00,85.8,50.8,29.06,WNW,292,7.6,7.6,30,0.00,CLR,,0.00,WeatherDisplay:10.37,2013-08-02 16:29:00,
2013-08-02 11:31:00,85.6,50.6,29.06,WNW,292,8.1,8.1,30,0.00,CLR,,0.00,WeatherDisplay:10.37,2013-08-02 16:31:00,
2013-08-02 11:33:00,85.8,50.8,29.06,NW,315,4.6,4.6,30,0.00,CLR,,0.00,WeatherDisplay:10.37,2013-08-02 16:33:00,
2013-08-02 11:34:00,85.6,49.7,29.06,WSW,248,3.8,3.8,29,0.00,CLR,,0.00,WeatherDisplay:10.37,2013-08-02 16:34:00,
2013-08-02 11:35:00,85.6,49.7,29.06,WNW,285,2.0,0.0,29,0.00,CLR,,0.00,WeatherDisplay:10.37,2013-08-02 16:35:00,
2013-08-02 11:37:00,85.8,51.7,29.06,WSW,248,3.5,3.5,31,0.00,CLR,,0.00,WeatherDisplay:10.37,2013-08-02 16:37:00,
2013-08-02 11:39:00,86.0,51.0,29.06,NW,315,4.6,4.6,30,0.00,CLR,,0.00,WeatherDisplay:10.37,2013-08-02 16:39:00,
2013-08-02 11:40:00,86.0,51.0,29.06,West,269,1.0,0.0,30,0.00,CLR,,0.00,WeatherDisplay:10.37,2013-08-02 16:40:00,
2013-08-02 11:41:00,86.2,51.1,29.06,WSW,248,3.5,3.5,30,0.00,CLR,,0.00,WeatherDisplay:10.37,2013-08-02 16:41:00,
2013-08-02 11:43:00,86.2,51.1,29.09,NW,315,2.6,2.6,30,0.00,CLR,,0.00,WeatherDisplay:10.37,2013-08-02 16:43:00,
2013-08-02 11:45:00,86.2,51.1,29.09,West,266,3.0,0.0,30,0.00,CLR,,0.00,WeatherDisplay:10.37,2013-08-02 16:45:00,
2013-08-02 11:46:00,85.5,50.5,29.09,WNW,292,8.1,8.1,30,0.00,CLR,,0.00,WeatherDisplay:10.37,2013-08-02 16:46:00,
2013-08-02 11:47:00,85.5,50.5,29.09,NW,315,8.1,8.1,30,0.00,CLR,,0.00,WeatherDisplay:10.37,2013-08-02 16:47:00,
2013-08-02 11:50:00,85.5,51.4,29.09,SW,225,5.8,5.8,31,0.00,CLR,,0.00,WeatherDisplay:10.37,2013-08-02 16:50:00,
2013-08-02 11:52:00,85.5,51.4,29.09,SW,225,4.6,4.6,31,0.00,CLR,,0.00,WeatherDisplay:10.37,2013-08-02 16:52:00,
2013-08-02 11:53:00,85.6,51.5,29.09,West,270,4.6,4.6,31,0.00,CLR,,0.00,WeatherDisplay:10.37,2013-08-02 16:53:00,
2013-08-02 11:56:00,85.6,50.6,29.09,SW,225,3.5,3.5,30,0.00,CLR,,0.00,WeatherDisplay:10.37,2013-08-02 16:56:00,
2013-08-02 11:57:00,85.6,51.5,29.09,NW,315,2.3,2.3,31,0.00,CLR,,0.00,WeatherDisplay:10.37,2013-08-02 16:57:00,
2013-08-02 11:58:00,85.6,51.5,29.06,West,270,4.0,4.0,31,0.00,CLR,,0.00,WeatherDisplay:10.37,2013-08-02 16:58:00,
2013-08-02 11:59:00,85.6,51.5,29.06,WSW,248,4.6,4.6,31,0.00,CLR,,0.00,WeatherDisplay:10.37,2013-08-02 16:59:00,
2013-08-02 12:01:00,85.8,51.7,29.06,SSW,202,2.3,2.3,31,0.00,CLR,,0.00,WeatherDisplay:10.37,2013-08-02 17:01:00,
2013-08-02 12:02:00,86.2,52.0,29.06,SSW,202,4.6,4.6,31,0.00,CLR,,0.00,WeatherDisplay:10.37,2013-08-02 17:02:00,
2013-08-02 12:04:00,86.4,52.2,29.06,WNW,292,5.8,5.8,31,0.00,CLR,,0.00,WeatherDisplay:10.37,2013-08-02 17:04:00,
2013-08-02 12:08:00,86.5,52.3,29.06,South,180,3.5,3.5,31,0.00,CLR,,0.00,WeatherDisplay:10.37,2013-08-02 17:08:00,
2013-08-02 12:10:00,86.5,50.5,29.06,WSW,258,2.0,0.0,29,0.00,CLR,,0.00,WeatherDisplay:10.37,2013-08-02 17:10:00,
2013-08-02 12:14:00,86.9,50.8,29.03,West,270,4.9,4.9,29,0.00,CLR,,0.00,WeatherDisplay:10.37,2013-08-02 17:14:00,
2013-08-02 12:15:00,86.9,50.8,29.03,WSW,242,2.0,0.0,29,0.00,CLR,,0.00,WeatherDisplay:10.37,2013-08-02 17:15:00,
2013-08-02 12:16:00,86.9,50.8,29.03,SW,225,3.5,3.5,29,0.00,CLR,,0.00,WeatherDisplay:10.37,2013-08-02 17:16:00,
2013-08-02 12:17:00,87.1,51.0,29.03,SSW,202,2.3,2.3,29,0.00,CLR,,0.00,WeatherDisplay:10.37,2013-08-02 17:17:00,
2013-08-02 12:18:00,87.1,51.0,29.03,SSW,202,1.1,1.1,29,0.00,CLR,,0.00,WeatherDisplay:10.37,2013-08-02 17:18:00,
2013-08-02 12:21:00,87.6,52.4,29.03,NNW,338,1.1,1.1,30,0.00,CLR,,0.00,WeatherDisplay:10.37,2013-08-02 17:21:00,
2013-08-02 12:22:00,87.6,51.4,29.03,WSW,248,3.5,3.5,29,0.00,CLR,,0.00,WeatherDisplay:10.37,2013-08-02 17:22:00,
2013-08-02 12:24:00,87.6,51.4,29.03,West,270,4.6,4.6,29,0.00,CLR,,0.00,WeatherDisplay:10.37,2013-08-02 17:24:00,
2013-08-02 12:25:00,87.8,51.6,29.03,SE,135,4.6,4.6,29,0.00,CLR,,0.00,WeatherDisplay:10.37,2013-08-02 17:25:00,
2013-08-02 12:27:00,87.6,50.5,29.03,WSW,248,4.6,4.6,28,0.00,CLR,,0.00,WeatherDisplay:10.37,2013-08-02 17:27:00,
2013-08-02 12:30:00,87.6,51.4,29.03,SSW,202,3.5,3.5,29,0.00,CLR,,0.00,WeatherDisplay:10.37,2013-08-02 17:30:00,
2013-08-02 12:31:00,87.8,51.6,29.03,WSW,248,2.3,2.3,29,0.00,CLR,,0.00,WeatherDisplay:10.37,2013-08-02 17:31:00,
2013-08-02 12:32:00,87.8,50.6,29.03,West,270,2.6,2.6,28,0.00,CLR,,0.00,WeatherDisplay:10.37,2013-08-02 17:32:00,
2013-08-02 12:33:00,87.8,50.6,29.03,WSW,248,2.3,2.3,28,0.00,CLR,,0.00,WeatherDisplay:10.37,2013-08-02 17:33:00,
2013-08-02 12:34:00,88.0,50.8,29.03,West,270,2.3,0.0,28,0.00,CLR,,0.00,WeatherDisplay:10.37,2013-08-02 17:34:00,
2013-08-02 12:36:00,88.2,51.9,29.03,SW,225,6.9,6.9,29,0.00,CLR,,0.00,WeatherDisplay:10.37,2013-08-02 17:36:00,
2013-08-02 12:37:00,88.2,51.9,29.03,SW,225,5.8,5.8,29,0.00,CLR,,0.00,WeatherDisplay:10.37,2013-08-02 17:37:00,
2013-08-02 12:39:00,88.2,50.9,29.03,SW,225,4.6,4.6,28,0.00,CLR,,0.00,WeatherDisplay:10.37,2013-08-02 17:39:00,
2013-08-02 12:40:00,88.2,50.9,29.03,West,270,2.3,2.3,28,0.00,CLR,,0.00,WeatherDisplay:10.37,2013-08-02 17:40:00,
2013-08-02 12:41:00,88.2,47.9,29.03,WNW,292,4.6,4.6,25,0.00,CLR,,0.00,WeatherDisplay:10.37,2013-08-02 17:41:00,
2013-08-02 12:43:00,88.0,45.5,29.09,West,270,5.8,5.8,23,0.00,CLR,,0.00,WeatherDisplay:10.37,2013-08-02 17:43:00,
2013-08-02 12:44:00,88.2,48.9,29.09,WSW,248,4.6,4.6,26,0.00,CLR,,0.00,WeatherDisplay:10.37,2013-08-02 17:44:00,
2013-08-02 12:47:00,88.2,50.0,29.09,WNW,292,3.5,3.5,27,0.00,CLR,,0.00,WeatherDisplay:10.37,2013-08-02 17:47:00,
2013-08-02 12:48:00,88.0,47.7,29.09,West,270,6.0,6.0,25,0.00,CLR,,0.00,WeatherDisplay:10.37,2013-08-02 17:48:00,
2013-08-02 12:50:00,88.0,46.7,29.09,SSW,202,4.9,4.9,24,0.00,CLR,,0.00,WeatherDisplay:10.37,2013-08-02 17:50:00,
2013-08-02 12:51:00,87.8,46.5,29.09,SSW,202,5.8,5.8,24,0.00,CLR,,0.00,WeatherDisplay:10.37,2013-08-02 17:51:00,
2013-08-02 12:52:00,87.8,48.6,29.09,WNW,292,6.9,6.9,26,0.00,CLR,,0.00,WeatherDisplay:10.37,2013-08-02 17:52:00,
2013-08-02 12:54:00,87.6,46.4,29.09,West,270,5.8,5.8,24,0.00,CLR,,0.00,WeatherDisplay:10.37,2013-08-02 17:54:00,
2013-08-02 12:55:00,87.4,46.2,29.09,WNW,292,4.6,5.6,24,0.00,CLR,,0.00,WeatherDisplay:10.37,2013-08-02 17:55:00,
2013-08-02 12:56:00,87.4,48.3,29.09,WSW,248,8.1,8.1,26,0.00,CLR,,0.00,WeatherDisplay:10.37,2013-08-02 17:56:00,
2013-08-02 12:57:00,87.4,48.3,29.09,East,90,3.5,3.5,26,0.00,CLR,,0.00,WeatherDisplay:10.37,2013-08-02 17:57:00,
2013-08-02 13:00:00,87.6,49.5,29.06,West,274,3.0,0.0,27,0.00,CLR,,0.00,WeatherDisplay:10.37,2013-08-02 18:00:00,
2013-08-02 13:01:00,87.6,49.5,29.06,WNW,292,5.8,5.8,27,0.00,CLR,,0.00,WeatherDisplay:10.37,2013-08-02 18:01:00,
2013-08-02 13:02:00,87.4,47.3,29.06,SSW,202,5.8,5.8,25,0.00,CLR,,0.00,WeatherDisplay:10.37,2013-08-02 18:02:00,
2013-08-02 13:03:00,87.3,48.2,29.06,NW,315,6.9,6.9,26,0.00,CLR,,0.00,WeatherDisplay:10.37,2013-08-02 18:03:00,
2013-08-02 13:06:00,87.1,47.0,29.06,WSW,248,5.8,5.8,25,0.00,CLR,,0.00,WeatherDisplay:10.37,2013-08-02 18:06:00,
2013-08-02 13:08:00,87.4,50.3,29.06,WSW,248,3.5,3.5,28,0.00,CLR,,0.00,WeatherDisplay:10.37,2013-08-02 18:08:00,
2013-08-02 13:09:00,87.4,50.3,29.06,South,180,5.8,5.8,28,0.00,CLR,,0.00,WeatherDisplay:10.37,2013-08-02 18:09:00,
2013-08-02 13:10:00,87.4,50.3,29.06,SW,225,5.8,5.8,28,0.00,CLR,,0.00,WeatherDisplay:10.37,2013-08-02 18:10:00,
2013-08-02 13:11:00,87.6,50.5,29.06,West,270,4.6,4.6,28,0.00,CLR,,0.00,WeatherDisplay:10.37,2013-08-02 18:11:00,
2013-08-02 13:13:00,87.6,49.5,29.06,WNW,292,8.1,8.1,27,0.00,CLR,,0.00,WeatherDisplay:10.37,2013-08-02 18:13:00,
2013-08-02 13:15:00,87.3,48.2,29.06,West,274,7.0,0.0,26,0.00,CLR,,0.00,WeatherDisplay:10.37,2013-08-02 18:15:00,
2013-08-02 13:16:00,87.3,48.2,29.06,WSW,248,8.1,8.1,26,0.00,CLR,,0.00,WeatherDisplay:10.37,2013-08-02 18:16:00,
2013-08-02 13:18:00,87.1,45.9,29.06,WNW,292,8.1,8.1,24,0.00,CLR,,0.00,WeatherDisplay:10.37,2013-08-02 18:18:00,
2013-08-02 13:19:00,87.1,45.9,29.06,West,270,6.0,6.0,24,0.00,CLR,,0.00,WeatherDisplay:10.37,2013-08-02 18:19:00,
2013-08-02 13:21:00,87.3,50.2,29.06,WNW,292,5.8,5.8,28,0.00,CLR,,0.00,WeatherDisplay:10.37,2013-08-02 18:21:00,
2013-08-02 13:23:00,87.3,50.2,29.06,WSW,248,4.6,4.6,28,0.00,CLR,,0.00,WeatherDisplay:10.37,2013-08-02 18:23:00,
2013-08-02 13:24:00,87.4,50.3,29.06,WSW,248,5.8,5.8,28,0.00,CLR,,0.00,WeatherDisplay:10.37,2013-08-02 18:24:00,
2013-08-02 13:25:00,87.4,50.3,29.06,SSW,202,5.8,5.8,28,0.00,CLR,,0.00,WeatherDisplay:10.37,2013-08-02 18:25:00,
2013-08-02 13:28:00,87.8,50.6,29.03,West,270,9.2,9.2,28,0.00,CLR,,0.00,WeatherDisplay:10.37,2013-08-02 18:28:00,
2013-08-02 13:29:00,87.8,48.6,29.03,West,270,5.8,5.8,26,0.00,CLR,,0.00,WeatherDisplay:10.37,2013-08-02 18:29:00,
2013-08-02 13:30:00,87.8,48.6,29.03,SW,225,4.6,4.6,26,0.00,CLR,,0.00,WeatherDisplay:10.37,2013-08-02 18:30:00,
2013-08-02 13:32:00,87.6,48.5,29.03,SW,225,8.1,8.1,26,0.00,CLR,,0.00,WeatherDisplay:10.37,2013-08-02 18:32:00,
2013-08-02 13:33:00,87.6,48.5,29.03,WNW,292,4.6,4.6,26,0.00,CLR,,0.00,WeatherDisplay:10.37,2013-08-02 18:33:00,
2013-08-02 13:34:00,87.6,48.5,29.03,WNW,292,4.6,4.6,26,0.00,CLR,,0.00,WeatherDisplay:10.37,2013-08-02 18:34:00,
2013-08-02 13:35:00,87.8,48.6,29.03,WNW,292,4.6,4.6,26,0.00,CLR,,0.00,WeatherDisplay:10.37,2013-08-02 18:35:00,
2013-08-02 13:38:00,88.3,51.1,29.03,North,0,6.9,6.9,28,0.00,CLR,,0.00,WeatherDisplay:10.37,2013-08-02 18:38:00,
2013-08-02 13:40:00,88.3,51.1,29.03,West,270,8.1,8.1,28,0.00,CLR,,0.00,WeatherDisplay:10.37,2013-08-02 18:40:00,
2013-08-02 13:42:00,88.2,47.9,29.03,SW,225,5.8,5.8,25,0.00,CLR,,0.00,WeatherDisplay:10.37,2013-08-02 18:42:00,
2013-08-02 13:44:00,88.0,46.7,29.03,NW,315,9.2,9.2,24,0.00,CLR,,0.00,WeatherDisplay:10.37,2013-08-02 18:44:00,
2013-08-02 13:47:00,88.3,50.1,29.03,NNW,338,5.8,5.8,27,0.00,CLR,,0.00,WeatherDisplay:10.37,2013-08-02 18:47:00,
2013-08-02 13:48:00,88.5,50.3,29.03,NW,315,5.8,5.8,27,0.00,CLR,,0.00,WeatherDisplay:10.37,2013-08-02 18:48:00,
2013-08-02 13:49:00,88.5,48.2,29.03,SW,225,5.9,5.9,25,0.00,CLR,,0.00,WeatherDisplay:10.37,2013-08-02 18:49:00,
2013-08-02 13:52:00,88.5,48.2,29.03,WNW,292,10.4,10.4,25,0.00,CLR,,0.00,WeatherDisplay:10.37,2013-08-02 18:52:00,
2013-08-02 13:53:00,88.5,47.1,29.03,SE,135,3.5,3.5,24,0.00,CLR,,0.00,WeatherDisplay:10.37,2013-08-02 18:53:00,
2013-08-02 13:54:00,88.2,47.9,29.03,WNW,292,5.6,5.6,25,0.00,CLR,,0.00,WeatherDisplay:10.37,2013-08-02 18:54:00,
2013-08-02 13:55:00,88.2,47.9,29.03,West,270,5.8,5.8,25,0.00,CLR,,0.00,WeatherDisplay:10.37,2013-08-02 18:55:00,
2013-08-02 13:56:00,88.2,50.0,29.03,West,270,4.9,4.9,27,0.00,CLR,,0.00,WeatherDisplay:10.37,2013-08-02 18:56:00,
2013-08-02 13:58:00,88.0,47.7,29.00,WNW,292,5.8,5.8,25,0.00,CLR,,0.00,WeatherDisplay:10.37,2013-08-02 18:58:00,
2013-08-02 13:59:00,88.5,49.3,29.00,West,270,5.6,5.6,26,0.00,CLR,,0.00,WeatherDisplay:10.37,2013-08-02 18:59:00,
2013-08-02 14:00:00,88.5,49.3,29.00,West,270,2.0,0.0,26,0.00,CLR,,0.00,WeatherDisplay:10.37,2013-08-02 19:00:00,
2013-08-02 14:01:00,88.5,46.0,29.00,West,270,9.2,9.2,23,0.00,CLR,,0.00,WeatherDisplay:10.37,2013-08-02 19:01:00,
2013-08-02 14:03:00,88.5,47.1,29.00,South,180,6.9,6.9,24,0.00,CLR,,0.00,WeatherDisplay:10.37,2013-08-02 19:03:00,
2013-08-02 14:04:00,88.5,47.1,29.00,SW,225,5.8,5.8,24,0.00,CLR,,0.00,WeatherDisplay:10.37,2013-08-02 19:04:00,
2013-08-02 14:05:00,88.6,47.2,29.00,SW,231,3.0,0.0,24,0.00,CLR,,0.00,WeatherDisplay:10.37,2013-08-02 19:05:00,
2013-08-02 14:08:00,89.1,47.6,29.00,NW,315,4.6,4.6,24,0.00,CLR,,0.00,WeatherDisplay:10.37,2013-08-02 19:08:00,
2013-08-02 14:10:00,88.9,45.1,29.00,WSW,244,5.0,0.0,22,0.00,CLR,,0.00,WeatherDisplay:10.37,2013-08-02 19:10:00,
2013-08-02 14:11:00,88.9,46.3,29.00,West,270,5.8,5.8,23,0.00,CLR,,0.00,WeatherDisplay:10.37,2013-08-02 19:11:00,
2013-08-02 14:13:00,88.7,45.0,29.03,SSW,202,4.6,4.6,22,0.00,CLR,,0.00,WeatherDisplay:10.37,2013-08-02 19:13:00,
2013-08-02 14:15:00,88.9,47.4,29.03,SW,225,3.5,3.5,24,0.00,CLR,,0.00,WeatherDisplay:10.37,2013-08-02 19:15:00,
2013-08-02 14:16:00,88.9,46.3,29.03,SW,225,3.5,3.5,23,0.00,CLR,,0.00,WeatherDisplay:10.37,2013-08-02 19:16:00,
2013-08-02 14:17:00,88.9,46.3,29.03,SW,225,5.8,5.8,23,0.00,CLR,,0.00,WeatherDisplay:10.37,2013-08-02 19:17:00,
2013-08-02 14:20:00,88.8,47.3,29.03,SW,222,3.0,0.0,24,0.00,CLR,,0.00,WeatherDisplay:10.37,2013-08-02 19:20:00,
2013-08-02 14:21:00,88.7,45.0,29.03,SSW,202,4.7,4.7,22,0.00,CLR,,0.00,WeatherDisplay:10.37,2013-08-02 19:21:00,
2013-08-02 14:22:00,88.5,44.8,29.03,South,180,4.6,4.6,22,0.00,CLR,,0.00,WeatherDisplay:10.37,2013-08-02 19:22:00,
2013-08-02 14:24:00,88.9,46.3,29.03,SW,225,3.5,3.5,23,0.00,CLR,,0.00,WeatherDisplay:10.37,2013-08-02 19:24:00,
2013-08-02 14:25:00,88.8,46.2,29.03,WSW,243,2.0,0.0,23,0.00,CLR,,0.00,WeatherDisplay:10.37,2013-08-02 19:25:00,
2013-08-02 14:27:00,88.9,46.3,29.03,South,180,4.6,4.6,23,0.00,CLR,,0.00,WeatherDisplay:10.37,2013-08-02 19:27:00,
2013-08-02 14:29:00,88.9,45.1,29.03,West,270,6.9,6.9,22,0.00,CLR,,0.00,WeatherDisplay:10.37,2013-08-02 19:29:00,
2013-08-02 14:30:00,88.3,43.4,29.03,WSW,248,5.8,5.8,21,0.00,CLR,,0.00,WeatherDisplay:10.37,2013-08-02 19:30:00,
2013-08-02 14:32:00,88.5,47.1,29.03,West,270,3.1,3.1,24,0.00,CLR,,0.00,WeatherDisplay:10.37,2013-08-02 19:32:00,
2013-08-02 14:35:00,89.2,48.8,29.03,NW,315,3.5,3.5,25,0.00,CLR,,0.00,WeatherDisplay:10.37,2013-08-02 19:35:00,
2013-08-02 14:36:00,89.2,48.8,29.03,WNW,292,4.6,4.6,25,0.00,CLR,,0.00,WeatherDisplay:10.37,2013-08-02 19:36:00,
2013-08-02 14:37:00,89.2,47.7,29.03,SSW,202,12.7,12.7,24,0.00,CLR,,0.00,WeatherDisplay:10.37,2013-08-02 19:37:00,
2013-08-02 14:38:00,89.2,47.7,29.03,WSW,248,10.4,10.4,24,0.00,CLR,,0.00,WeatherDisplay:10.37,2013-08-02 19:38:00,
2013-08-02 14:41:00,89.2,46.6,29.03,NW,315,11.5,11.5,23,0.00,CLR,,0.00,WeatherDisplay:10.37,2013-08-02 19:41:00,
2013-08-02 14:42:00,89.2,46.6,29.03,South,180,5.8,5.8,23,0.00,CLR,,0.00,WeatherDisplay:10.37,2013-08-02 19:42:00,
2013-08-02 14:43:00,89.2,46.6,29.03,West,270,6.2,6.2,23,0.00,CLR,,0.00,WeatherDisplay:10.37,2013-08-02 19:43:00,
2013-08-02 14:44:00,89.1,44.0,29.03,WNW,292,9.7,9.7,21,0.00,CLR,,0.00,WeatherDisplay:10.37,2013-08-02 19:44:00,
2013-08-02 14:47:00,89.6,46.9,29.03,West,270,3.5,3.5,23,0.00,CLR,,0.00,WeatherDisplay:10.37,2013-08-02 19:47:00,
2013-08-02 14:48:00,89.6,45.7,29.03,West,270,6.0,6.0,22,0.00,CLR,,0.00,WeatherDisplay:10.37,2013-08-02 19:48:00,
2013-08-02 14:50:00,89.3,45.5,29.03,West,261,6.0,0.0,22,0.00,CLR,,0.00,WeatherDisplay:10.37,2013-08-02 19:50:00,
2013-08-02 14:52:00,89.1,45.3,29.03,NNW,338,8.1,8.1,22,0.00,CLR,,0.00,WeatherDisplay:10.37,2013-08-02 19:52:00,
2013-08-02 14:54:00,89.1,45.3,29.03,WSW,248,3.5,3.5,22,0.00,CLR,,0.00,WeatherDisplay:10.37,2013-08-02 19:54:00,
2013-08-02 14:56:00,88.9,45.1,29.03,West,270,4.9,4.9,22,0.00,CLR,,0.00,WeatherDisplay:10.37,2013-08-02 19:56:00,
2013-08-02 14:57:00,88.9,45.1,29.03,West,270,8.1,8.1,22,0.00,CLR,,0.00,WeatherDisplay:10.37,2013-08-02 19:57:00,
2013-08-02 14:59:00,88.3,43.4,29.03,West,270,4.9,4.9,21,0.00,CLR,,0.00,WeatherDisplay:10.37,2013-08-02 19:59:00,
2013-08-02 15:00:00,88.3,43.4,29.03,West,265,2.0,0.0,21,0.00,CLR,,0.00,WeatherDisplay:10.37,2013-08-02 20:00:00,
2013-08-02 15:02:00,88.3,45.8,29.03,ESE,112,3.5,3.5,23,0.00,CLR,,0.00,WeatherDisplay:10.37,2013-08-02 20:02:00,
2013-08-02 15:03:00,88.5,48.2,29.03,WSW,248,3.3,3.3,25,0.00,CLR,,0.00,WeatherDisplay:10.37,2013-08-02 20:03:00,
2013-08-02 15:05:00,88.6,47.2,29.03,West,281,2.0,0.0,24,0.00,CLR,,0.00,WeatherDisplay:10.37,2013-08-02 20:05:00,
2013-08-02 15:06:00,88.7,47.3,29.03,West,270,8.1,8.1,24,0.00,CLR,,0.00,WeatherDisplay:10.37,2013-08-02 20:06:00,
2013-08-02 15:08:00,88.9,47.4,29.03,SW,225,3.5,3.5,24,0.00,CLR,,0.00,WeatherDisplay:10.37,2013-08-02 20:08:00,
2013-08-02 15:10:00,89.1,49.7,29.03,West,271,2.0,0.0,26,0.00,CLR,,0.00,WeatherDisplay:10.37,2013-08-02 20:10:00,
2013-08-02 15:11:00,89.1,46.4,29.03,South,180,6.9,6.9,23,0.00,CLR,,0.00,WeatherDisplay:10.37,2013-08-02 20:11:00,
2013-08-02 15:15:00,89.4,47.9,29.00,WSW,249,2.0,0.0,24,0.00,CLR,,0.00,WeatherDisplay:10.37,2013-08-02 20:15:00,
2013-08-02 15:16:00,89.1,46.4,29.00,SSW,202,8.1,8.1,23,0.00,CLR,,0.00,WeatherDisplay:10.37,2013-08-02 20:16:00,
2013-08-02 15:18:00,89.1,44.0,29.00,NNW,338,4.9,4.9,21,0.00,CLR,,0.00,WeatherDisplay:10.37,2013-08-02 20:18:00,
2013-08-02 15:19:00,89.1,44.0,29.00,WSW,248,5.8,5.8,21,0.00,CLR,,0.00,WeatherDisplay:10.37,2013-08-02 20:19:00,
2013-08-02 15:20:00,89.1,46.4,29.00,SSW,202,3.5,3.5,23,0.00,CLR,,0.00,WeatherDisplay:10.37,2013-08-02 20:20:00,
2013-08-02 15:21:00,89.1,46.4,29.00,WSW,248,2.3,2.3,23,0.00,CLR,,0.00,WeatherDisplay:10.37,2013-08-02 20:21:00,
2013-08-02 15:22:00,89.1,46.4,29.00,West,270,4.6,4.6,23,0.00,CLR,,0.00,WeatherDisplay:10.37,2013-08-02 20:22:00,
2013-08-02 15:24:00,88.7,46.1,29.00,WSW,248,2.3,2.6,23,0.00,CLR,,0.00,WeatherDisplay:10.37,2013-08-02 20:24:00,
2013-08-02 15:25:00,88.7,46.1,29.00,WSW,239,2.0,0.0,23,0.00,CLR,,0.00,WeatherDisplay:10.37,2013-08-02 20:25:00,
2013-08-02 15:29:00,88.5,46.0,29.03,WNW,292,4.6,4.6,23,0.00,CLR,,0.00,WeatherDisplay:10.37,2013-08-02 20:29:00,
2013-08-02 15:30:00,88.5,46.0,29.03,WSW,251,2.0,0.0,23,0.00,CLR,,0.00,WeatherDisplay:10.37,2013-08-02 20:30:00,
2013-08-02 15:31:00,88.3,45.8,29.03,SSW,202,5.9,5.9,23,0.00,CLR,,0.00,WeatherDisplay:10.37,2013-08-02 20:31:00,
2013-08-02 15:34:00,88.2,45.7,29.03,NW,315,2.3,2.6,23,0.00,CLR,,0.00,WeatherDisplay:10.37,2013-08-02 20:34:00,
2013-08-02 15:35:00,88.2,45.7,29.03,West,268,2.0,0.0,23,0.00,CLR,,0.00,WeatherDisplay:10.37,2013-08-02 20:35:00,
2013-08-02 15:36:00,88.2,46.8,29.03,West,270,1.1,1.1,24,0.00,CLR,,0.00,WeatherDisplay:10.37,2013-08-02 20:36:00,
2013-08-02 15:38:00,88.2,46.8,29.03,WSW,248,4.6,4.6,24,0.00,CLR,,0.00,WeatherDisplay:10.37,2013-08-02 20:38:00,
2013-08-02 15:40:00,88.0,46.7,29.03,West,262,2.0,0.0,24,0.00,CLR,,0.00,WeatherDisplay:10.37,2013-08-02 20:40:00,
2013-08-02 15:41:00,88.2,48.9,29.03,South,180,2.4,2.4,26,0.00,CLR,,0.00,WeatherDisplay:10.37,2013-08-02 20:41:00,
2013-08-02 15:42:00,88.2,48.9,29.03,NW,315,2.4,2.4,26,0.00,CLR,,0.00,WeatherDisplay:10.37,2013-08-02 20:42:00,
2013-08-02 15:46:00,88.5,48.2,29.03,WSW,248,4.6,4.6,25,0.00,CLR,,0.00,WeatherDisplay:10.37,2013-08-02 20:46:00,
2013-08-02 15:47:00,88.5,48.2,29.03,West,270,5.8,5.8,25,0.00,CLR,,0.00,WeatherDisplay:10.37,2013-08-02 20:47:00,
2013-08-02 15:50:00,88.5,47.1,29.03,SW,233,2.0,0.0,24,0.00,CLR,,0.00,WeatherDisplay:10.37,2013-08-02 20:50:00,
2013-08-02 15:51:00,88.7,47.3,29.03,WSW,248,5.8,5.8,24,0.00,CLR,,0.00,WeatherDisplay:10.37,2013-08-02 20:51:00,
2013-08-02 15:53:00,88.3,45.8,29.03,WSW,248,4.6,4.6,23,0.00,CLR,,0.00,WeatherDisplay:10.37,2013-08-02 20:53:00,
2013-08-02 15:54:00,88.3,48.1,29.03,SSW,202,3.5,3.5,25,0.00,CLR,,0.00,WeatherDisplay:10.37,2013-08-02 20:54:00,
2013-08-02 15:55:00,88.4,48.1,29.03,SW,229,2.0,0.0,25,0.00,CLR,,0.00,WeatherDisplay:10.37,2013-08-02 20:55:00,
2013-08-02 15:57:00,88.5,48.2,29.03,South,180,4.6,4.6,25,0.00,CLR,,0.00,WeatherDisplay:10.37,2013-08-02 20:57:00,
2013-08-02 16:00:00,88.5,48.2,29.03,WSW,238,2.0,0.0,25,0.00,CLR,,0.00,WeatherDisplay:10.37,2013-08-02 21:00:00,
2013-08-02 16:01:00,88.5,49.3,29.03,SW,225,2.3,2.3,26,0.00,CLR,,0.00,WeatherDisplay:10.37,2013-08-02 21:01:00,
2013-08-02 16:02:00,88.5,50.3,29.03,West,270,6.2,6.2,27,0.00,CLR,,0.00,WeatherDisplay:10.37,2013-08-02 21:02:00,
2013-08-02 16:03:00,88.5,50.3,29.03,WNW,292,8.1,8.1,27,0.00,CLR,,0.00,WeatherDisplay:10.37,2013-08-02 21:03:00,
2013-08-02 16:05:00,88.4,49.1,29.03,WSW,255,5.0,0.0,26,0.00,CLR,,0.00,WeatherDisplay:10.37,2013-08-02 21:05:00,
2013-08-02 16:08:00,87.8,46.5,29.03,West,270,4.6,4.6,24,0.00,CLR,,0.00,WeatherDisplay:10.37,2013-08-02 21:08:00,
2013-08-02 16:10:00,87.8,47.6,29.03,SE,135,4.6,4.6,25,0.00,CLR,,0.00,WeatherDisplay:10.37,2013-08-02 21:10:00,
2013-08-02 16:12:00,87.8,48.6,29.03,West,270,4.6,4.6,26,0.00,CLR,,0.00,WeatherDisplay:10.37,2013-08-02 21:12:00,
2013-08-02 16:13:00,87.8,48.6,29.00,WSW,248,5.4,5.4,26,0.00,CLR,,0.00,WeatherDisplay:10.37,2013-08-02 21:13:00,
2013-08-02 16:15:00,87.8,48.6,29.00,West,270,5.8,5.8,26,0.00,CLR,,0.00,WeatherDisplay:10.37,2013-08-02 21:15:00,
2013-08-02 16:18:00,87.8,49.7,29.00,West,270,6.4,6.4,27,0.00,CLR,,0.00,WeatherDisplay:10.37,2013-08-02 21:18:00,
2013-08-02 16:19:00,87.6,48.5,29.00,SSW,202,6.9,6.9,26,0.00,CLR,,0.00,WeatherDisplay:10.37,2013-08-02 21:19:00,
2013-08-02 16:20:00,87.6,49.5,29.00,WSW,248,5.9,5.9,27,0.00,CLR,,0.00,WeatherDisplay:10.37,2013-08-02 21:20:00,
2013-08-02 16:21:00,87.6,48.5,29.00,NW,315,5.8,5.8,26,0.00,CLR,,0.00,WeatherDisplay:10.37,2013-08-02 21:21:00,
2013-08-02 16:24:00,87.4,48.3,29.00,North,0,4.3,4.3,26,0.00,CLR,,0.00,WeatherDisplay:10.37,2013-08-02 21:24:00,
2013-08-02 16:25:00,87.4,48.3,29.00,West,266,2.0,0.0,26,0.00,CLR,,0.00,WeatherDisplay:10.37,2013-08-02 21:25:00,
2013-08-02 16:26:00,87.6,49.5,29.00,SW,225,3.5,3.6,27,0.00,CLR,,0.00,WeatherDisplay:10.37,2013-08-02 21:26:00,
2013-08-02 16:28:00,87.4,50.3,29.03,SW,225,5.8,5.8,28,0.00,CLR,,0.00,WeatherDisplay:10.37,2013-08-02 21:28:00,
2013-08-02 16:30:00,87.4,50.3,29.03,NW,315,5.8,5.8,28,0.00,CLR,,0.00,WeatherDisplay:10.37,2013-08-02 21:30:00,
2013-08-02 16:31:00,87.4,51.3,29.03,WSW,248,3.5,3.5,29,0.00,CLR,,0.00,WeatherDisplay:10.37,2013-08-02 21:31:00,
2013-08-02 16:34:00,87.4,50.3,29.03,WNW,292,3.5,3.5,28,0.00,CLR,,0.00,WeatherDisplay:10.37,2013-08-02 21:34:00,
2013-08-02 16:36:00,87.6,50.5,29.03,ESE,112,4.7,4.7,28,0.00,CLR,,0.00,WeatherDisplay:10.37,2013-08-02 21:36:00,
2013-08-02 16:38:00,87.6,51.4,29.03,West,270,4.9,4.9,29,0.00,CLR,,0.00,WeatherDisplay:10.37,2013-08-02 21:38:00,
2013-08-02 16:39:00,87.6,50.5,29.03,SW,225,4.6,4.6,28,0.00,CLR,,0.00,WeatherDisplay:10.37,2013-08-02 21:39:00,
2013-08-02 16:40:00,87.7,50.5,29.03,WSW,239,2.0,0.0,28,0.00,CLR,,0.00,WeatherDisplay:10.37,2013-08-02 21:40:00,
2013-08-02 16:42:00,88.0,50.8,29.03,South,180,3.5,3.5,28,0.00,CLR,,0.00,WeatherDisplay:10.37,2013-08-02 21:42:00,
2013-08-02 16:44:00,87.8,50.6,29.00,West,270,5.8,5.8,28,0.00,CLR,,0.00,WeatherDisplay:10.37,2013-08-02 21:44:00,
2013-08-02 16:45:00,87.8,50.6,29.00,SW,228,3.0,0.0,28,0.00,CLR,,0.00,WeatherDisplay:10.37,2013-08-02 21:45:00,
2013-08-02 16:46:00,87.6,48.5,29.00,West,270,4.0,4.0,26,0.00,CLR,,0.00,WeatherDisplay:10.37,2013-08-02 21:46:00,
2013-08-02 16:47:00,87.6,48.5,29.00,NW,315,4.6,4.6,26,0.00,CLR,,0.00,WeatherDisplay:10.37,2013-08-02 21:47:00,
2013-08-02 16:50:00,87.4,49.3,29.00,ESE,112,5.8,5.8,27,0.00,CLR,,0.00,WeatherDisplay:10.37,2013-08-02 21:50:00,
2013-08-02 16:52:00,87.3,50.2,29.00,SSW,202,3.1,3.1,28,0.00,CLR,,0.00,WeatherDisplay:10.37,2013-08-02 21:52:00,
2013-08-02 16:55:00,87.3,50.2,29.00,NNE,22,5.8,5.8,28,0.00,CLR,,0.00,WeatherDisplay:10.37,2013-08-02 21:55:00,
2013-08-02 16:57:00,87.1,50.0,29.00,West,270,4.6,4.6,28,0.00,CLR,,0.00,WeatherDisplay:10.37,2013-08-02 21:57:00,
2013-08-02 16:59:00,87.1,50.0,29.00,SW,225,2.4,2.4,28,0.00,CLR,,0.00,WeatherDisplay:10.37,2013-08-02 21:59:00,
2013-08-02 17:00:00,87.1,50.0,29.00,WSW,244,2.0,0.0,28,0.00,CLR,,0.00,WeatherDisplay:10.37,2013-08-02 22:00:00,
2013-08-02 17:01:00,87.1,50.0,29.00,West,270,4.7,4.7,28,0.00,CLR,,0.00,WeatherDisplay:10.37,2013-08-02 22:01:00,
2013-08-02 17:05:00,86.9,49.9,29.00,WSW,248,5.8,5.8,28,0.00,CLR,,0.00,WeatherDisplay:10.37,2013-08-02 22:05:00,
2013-08-02 17:06:00,86.7,49.7,29.00,West,270,3.5,3.5,28,0.00,CLR,,0.00,WeatherDisplay:10.37,2013-08-02 22:06:00,
2013-08-02 17:07:00,86.7,49.7,29.00,SW,225,4.6,4.6,28,0.00,CLR,,0.00,WeatherDisplay:10.37,2013-08-02 22:07:00,
2013-08-02 17:09:00,86.5,49.6,29.00,West,270,2.6,2.6,28,0.00,CLR,,0.00,WeatherDisplay:10.37,2013-08-02 22:09:00,
2013-08-02 17:11:00,86.2,50.2,29.00,West,270,3.5,3.5,29,0.00,CLR,,0.00,WeatherDisplay:10.37,2013-08-02 22:11:00,
2013-08-02 17:12:00,86.2,49.3,29.00,WSW,248,4.6,4.6,28,0.00,CLR,,0.00,WeatherDisplay:10.37,2013-08-02 22:12:00,
2013-08-02 17:13:00,86.0,50.0,29.03,WSW,248,5.8,5.8,29,0.00,CLR,,0.00,WeatherDisplay:10.37,2013-08-02 22:13:00,
2013-08-02 17:16:00,86.0,50.0,29.03,SW,225,3.8,3.8,29,0.00,CLR,,0.00,WeatherDisplay:10.37,2013-08-02 22:16:00,
2013-08-02 17:18:00,86.0,50.0,29.03,West,270,2.6,2.6,29,0.00,CLR,,0.00,WeatherDisplay:10.37,2013-08-02 22:18:00,
2013-08-02 17:19:00,86.0,50.0,29.03,SW,225,4.6,4.6,29,0.00,CLR,,0.00,WeatherDisplay:10.37,2013-08-02 22:19:00,
2013-08-02 17:22:00,86.2,50.2,29.03,West,270,2.3,2.3,29,0.00,CLR,,0.00,WeatherDisplay:10.37,2013-08-02 22:22:00,
2013-08-02 17:23:00,86.2,50.2,29.03,NW,315,3.5,3.5,29,0.00,CLR,,0.00,WeatherDisplay:10.37,2013-08-02 22:23:00,
2013-08-02 17:24:00,86.0,50.0,29.03,West,270,3.5,3.5,29,0.00,CLR,,0.00,WeatherDisplay:10.37,2013-08-02 22:24:00,
2013-08-02 17:25:00,86.2,50.2,29.03,West,270,4.6,4.6,29,0.00,CLR,,0.00,WeatherDisplay:10.37,2013-08-02 22:25:00,
2013-08-02 17:26:00,86.2,50.2,29.03,West,270,6.9,6.9,29,0.00,CLR,,0.00,WeatherDisplay:10.37,2013-08-02 22:26:00,
2013-08-02 17:28:00,86.2,50.2,29.03,NW,315,3.5,3.5,29,0.00,CLR,,0.00,WeatherDisplay:10.37,2013-08-02 22:28:00,
2013-08-02 17:29:00,86.2,50.2,29.03,SW,225,4.0,4.0,29,0.00,CLR,,0.00,WeatherDisplay:10.37,2013-08-02 22:29:00,
2013-08-02 17:31:00,86.2,50.2,29.03,East,90,5.8,5.8,29,0.00,CLR,,0.00,WeatherDisplay:10.37,2013-08-02 22:31:00,
2013-08-02 17:32:00,86.2,50.2,29.03,WNW,292,2.3,2.3,29,0.00,CLR,,0.00,WeatherDisplay:10.37,2013-08-02 22:32:00,
2013-08-02 17:36:00,85.8,50.8,29.03,West,270,5.8,5.8,30,0.00,CLR,,0.00,WeatherDisplay:10.37,2013-08-02 22:36:00,
2013-08-02 17:37:00,85.8,50.8,29.03,WNW,292,2.3,2.6,30,0.00,CLR,,0.00,WeatherDisplay:10.37,2013-08-02 22:37:00,
2013-08-02 17:39:00,85.8,50.8,29.03,SSW,202,4.6,4.6,30,0.00,CLR,,0.00,WeatherDisplay:10.37,2013-08-02 22:39:00,
2013-08-02 17:40:00,85.6,50.6,29.03,WNW,292,6.2,6.2,30,0.00,CLR,,0.00,WeatherDisplay:10.37,2013-08-02 22:40:00,
2013-08-02 17:41:00,85.6,50.6,29.03,WNW,292,5.8,5.8,30,0.00,CLR,,0.00,WeatherDisplay:10.37,2013-08-02 22:41:00,
2013-08-02 17:42:00,85.6,50.6,29.03,SW,225,4.0,4.0,30,0.00,CLR,,0.00,WeatherDisplay:10.37,2013-08-02 22:42:00,
2013-08-02 17:45:00,85.6,50.6,29.03,SW,225,3.5,3.5,30,0.00,CLR,,0.00,WeatherDisplay:10.37,2013-08-02 22:45:00,
2013-08-02 17:46:00,85.6,50.6,29.03,WNW,292,2.3,0.0,30,0.00,CLR,,0.00,WeatherDisplay:10.37,2013-08-02 22:46:00,
2013-08-02 17:48:00,85.6,51.5,29.03,SSE,158,2.4,2.4,31,0.00,CLR,,0.00,WeatherDisplay:10.37,2013-08-02 22:48:00,
2013-08-02 17:49:00,85.8,50.8,29.03,SW,225,4.3,4.3,30,0.00,CLR,,0.00,WeatherDisplay:10.37,2013-08-02 22:49:00,
2013-08-02 17:52:00,86.0,51.0,29.03,SSW,202,2.3,2.3,30,0.00,CLR,,0.00,WeatherDisplay:10.37,2013-08-02 22:52:00,
2013-08-02 17:54:00,86.0,51.8,29.03,West,270,1.1,1.1,31,0.00,CLR,,0.00,WeatherDisplay:10.37,2013-08-02 22:54:00,
2013-08-02 17:55:00,86.0,51.8,29.03,SW,225,2.3,2.3,31,0.00,CLR,,0.00,WeatherDisplay:10.37,2013-08-02 22:55:00,
2013-08-02 17:58:00,86.0,51.0,29.03,SSW,202,2.3,2.3,30,0.00,CLR,,0.00,WeatherDisplay:10.37,2013-08-02 22:58:00,
2013-08-02 18:00:00,86.0,51.8,29.03,NNE,22,2.3,2.3,31,0.00,CLR,,0.00,WeatherDisplay:10.37,2013-08-02 23:00:00,
2013-08-02 18:01:00,86.0,51.8,29.03,WSW,248,2.3,2.3,31,0.00,CLR,,0.00,WeatherDisplay:10.37,2013-08-02 23:01:00,
2013-08-02 18:02:00,86.2,52.0,29.03,West,270,2.3,2.3,31,0.00,CLR,,0.00,WeatherDisplay:10.37,2013-08-02 23:02:00,
2013-08-02 18:03:00,86.2,52.0,29.03,West,270,1.1,1.6,31,0.00,CLR,,0.00,WeatherDisplay:10.37,2013-08-02 23:03:00,
2013-08-02 18:05:00,86.2,52.0,29.03,WSW,258,2.0,0.0,31,0.00,CLR,,0.00,WeatherDisplay:10.37,2013-08-02 23:05:00,
2013-08-02 18:07:00,86.2,52.0,29.03,West,270,3.5,3.5,31,0.00,CLR,,0.00,WeatherDisplay:10.37,2013-08-02 23:07:00,
2013-08-02 18:08:00,86.0,51.8,29.03,SW,225,4.6,4.6,31,0.00,CLR,,0.00,WeatherDisplay:10.37,2013-08-02 23:08:00,
2013-08-02 18:10:00,86.0,51.8,29.03,WSW,258,2.0,0.0,31,0.00,CLR,,0.00,WeatherDisplay:10.37,2013-08-02 23:10:00,
2013-08-02 18:12:00,85.8,51.7,29.03,WSW,248,2.6,2.6,31,0.00,CLR,,0.00,WeatherDisplay:10.37,2013-08-02 23:12:00,
2013-08-02 18:13:00,85.8,51.7,29.00,WSW,248,3.5,3.5,31,0.00,CLR,,0.00,WeatherDisplay:10.37,2013-08-02 23:13:00,
2013-08-02 18:16:00,85.8,52.5,29.00,West,270,5.6,5.6,32,0.00,CLR,,0.00,WeatherDisplay:10.37,2013-08-02 23:16:00,
2013-08-02 18:17:00,85.8,52.5,29.00,WSW,248,5.8,5.8,32,0.00,CLR,,0.00,WeatherDisplay:10.37,2013-08-02 23:17:00,
2013-08-02 18:18:00,85.6,51.5,29.00,SW,225,2.3,2.3,31,0.00,CLR,,0.00,WeatherDisplay:10.37,2013-08-02 23:18:00,
2013-08-02 18:22:00,85.8,52.5,29.00,SSW,202,2.3,2.3,32,0.00,CLR,,0.00,WeatherDisplay:10.37,2013-08-02 23:22:00,
2013-08-02 18:23:00,85.8,52.5,29.00,West,270,4.7,4.7,32,0.00,CLR,,0.00,WeatherDisplay:10.37,2013-08-02 23:23:00,
2013-08-02 18:24:00,85.8,52.5,29.00,SW,225,4.6,4.6,32,0.00,CLR,,0.00,WeatherDisplay:10.37,2013-08-02 23:24:00,
2013-08-02 18:25:00,85.6,51.5,29.00,WSW,248,5.4,5.4,31,0.00,CLR,,0.00,WeatherDisplay:10.37,2013-08-02 23:25:00,
2013-08-02 18:29:00,85.6,51.5,29.03,WSW,248,4.7,4.7,31,0.00,CLR,,0.00,WeatherDisplay:10.37,2013-08-02 23:29:00,
2013-08-02 18:30:00,85.6,51.5,29.03,WSW,253,2.0,0.0,31,0.00,CLR,,0.00,WeatherDisplay:10.37,2013-08-02 23:30:00,
2013-08-02 18:31:00,85.5,52.2,29.03,West,270,4.6,4.6,32,0.00,CLR,,0.00,WeatherDisplay:10.37,2013-08-02 23:31:00,
2013-08-02 18:32:00,85.5,52.2,29.03,SW,225,7.1,7.1,32,0.00,CLR,,0.00,WeatherDisplay:10.37,2013-08-02 23:32:00,
2013-08-02 18:33:00,85.3,52.1,29.03,West,270,6.9,6.9,32,0.00,CLR,,0.00,WeatherDisplay:10.37,2013-08-02 23:33:00,
2013-08-02 18:34:00,85.3,52.1,29.03,WSW,248,5.8,5.8,32,0.00,CLR,,0.00,WeatherDisplay:10.37,2013-08-02 23:34:00,
2013-08-02 18:37:00,85.1,51.9,29.03,West,270,3.1,3.1,32,0.00,CLR,,0.00,WeatherDisplay:10.37,2013-08-02 23:37:00,
2013-08-02 18:38:00,85.1,51.9,29.03,WSW,248,3.5,3.5,32,0.00,CLR,,0.00,WeatherDisplay:10.37,2013-08-02 23:38:00,
2013-08-02 18:40:00,85.0,51.8,29.03,West,261,3.0,0.0,32,0.00,CLR,,0.00,WeatherDisplay:10.37,2013-08-02 23:40:00,
2013-08-02 18:43:00,84.7,51.6,29.00,WSW,248,5.8,5.8,32,0.00,CLR,,0.00,WeatherDisplay:10.37,2013-08-02 23:43:00,
2013-08-02 18:45:00,84.6,51.5,29.00,West,270,6.9,6.9,32,0.00,CLR,,0.00,WeatherDisplay:10.37,2013-08-02 23:45:00,
2013-08-02 18:46:00,84.6,51.5,29.00,SW,225,6.0,6.0,32,0.00,CLR,,0.00,WeatherDisplay:10.37,2013-08-02 23:46:00,
2013-08-02 18:47:00,84.4,51.3,29.00,West,270,5.8,5.8,32,0.00,CLR,,0.00,WeatherDisplay:10.37,2013-08-02 23:47:00,
2013-08-02 18:49:00,84.4,51.3,29.00,West,270,4.6,4.6,32,0.00,CLR,,0.00,WeatherDisplay:10.37,2013-08-02 23:49:00,
2013-08-02 18:50:00,84.4,51.3,29.00,WSW,248,5.8,5.8,32,0.00,CLR,,0.00,WeatherDisplay:10.37,2013-08-02 23:50:00,
2013-08-02 18:52:00,84.2,51.1,29.00,NW,315,5.8,5.8,32,0.00,CLR,,0.00,WeatherDisplay:10.37,2013-08-02 23:52:00,
2013-08-02 18:53:00,84.2,51.1,29.00,SSW,202,1.4,1.4,32,0.00,CLR,,0.00,WeatherDisplay:10.37,2013-08-02 23:53:00,
2013-08-02 18:54:00,84.0,51.8,29.00,West,270,3.5,3.5,33,0.00,CLR,,0.00,WeatherDisplay:10.37,2013-08-02 23:54:00,
2013-08-02 18:55:00,84.0,51.8,29.00,West,269,2.0,0.0,33,0.00,CLR,,0.00,WeatherDisplay:10.37,2013-08-02 23:55:00,
2013-08-02 18:58:00,83.8,52.5,29.00,West,270,2.3,2.3,34,0.00,CLR,,0.00,WeatherDisplay:10.37,2013-08-02 23:58:00,
2013-08-02 18:59:00,83.8,52.5,29.00,WSW,248,2.3,2.3,34,0.00,CLR,,0.00,WeatherDisplay:10.37,2013-08-02 23:59:00,
2013-08-02 19:00:00,83.5,52.2,29.00,WSW,248,2.3,2.3,34,0.00,CLR,,0.00,WeatherDisplay:10.37,2013-08-03 00:00:00,
2013-08-02 19:03:00,83.1,52.6,29.00,West,270,4.6,4.6,35,0.00,CLR,,0.00,WeatherDisplay:10.37,2013-08-03 00:03:00,
2013-08-02 19:04:00,83.1,52.6,29.00,WSW,248,2.3,2.3,35,0.00,CLR,,0.00,WeatherDisplay:10.37,2013-08-03 00:04:00,
2013-08-02 19:06:00,83.1,52.6,29.00,WSW,248,3.5,3.5,35,0.00,CLR,,0.00,WeatherDisplay:10.37,2013-08-03 00:06:00,
2013-08-02 19:08:00,82.9,52.5,29.00,SW,225,4.0,4.0,35,0.00,CLR,,0.00,WeatherDisplay:10.37,2013-08-03 00:08:00,
2013-08-02 19:09:00,82.8,52.3,29.00,WSW,248,4.6,0.0,35,0.00,CLR,,0.00,WeatherDisplay:10.37,2013-08-03 00:09:00,
2013-08-02 19:10:00,82.8,52.3,29.00,WSW,248,1.6,0.0,35,0.00,CLR,,0.00,WeatherDisplay:10.37,2013-08-03 00:10:00,
2013-08-02 19:13:00,82.8,53.1,29.00,WSW,248,1.1,1.1,36,0.00,CLR,,0.00,WeatherDisplay:10.37,2013-08-03 00:13:00,
2013-08-02 19:14:00,82.6,52.9,29.00,WSW,248,0.9,0.0,36,0.00,CLR,,0.00,WeatherDisplay:10.37,2013-08-03 00:14:00,
2013-08-02 19:15:00,82.6,52.9,29.00,WSW,248,2.3,0.0,36,0.00,CLR,,0.00,WeatherDisplay:10.37,2013-08-03 00:15:00,
2013-08-02 19:17:00,82.4,53.5,29.00,West,270,1.6,0.0,37,0.00,CLR,,0.00,WeatherDisplay:10.37,2013-08-03 00:17:00,
2013-08-02 19:20:00,82.3,53.4,29.00,WSW,252,1.0,0.0,37,0.00,CLR,,0.00,WeatherDisplay:10.37,2013-08-03 00:20:00,
2013-08-02 19:21:00,82.2,54.8,29.00,West,270,2.3,2.3,39,0.00,CLR,,0.00,WeatherDisplay:10.37,2013-08-03 00:21:00,
2013-08-02 19:22:00,82.2,54.8,29.00,WNW,292,2.4,2.4,39,0.00,CLR,,0.00,WeatherDisplay:10.37,2013-08-03 00:22:00,
2013-08-02 19:23:00,82.2,54.1,29.00,WSW,248,2.3,2.3,38,0.00,CLR,,0.00,WeatherDisplay:10.37,2013-08-03 00:23:00,
2013-08-02 19:25:00,82.2,54.8,29.00,West,264,1.0,0.0,39,0.00,CLR,,0.00,WeatherDisplay:10.37,2013-08-03 00:25:00,
2013-08-02 19:27:00,82.0,54.6,29.00,West,270,4.6,4.6,39,0.00,CLR,,0.00,WeatherDisplay:10.37,2013-08-03 00:27:00,
2013-08-02 19:28:00,81.9,54.5,29.00,West,270,3.5,3.5,39,0.00,CLR,,0.00,WeatherDisplay:10.37,2013-08-03 00:28:00,
2013-08-02 19:29:00,81.9,54.5,29.00,WSW,248,3.5,3.5,39,0.00,CLR,,0.00,WeatherDisplay:10.37,2013-08-03 00:29:00,
2013-08-02 19:31:00,81.7,55.0,29.00,WNW,292,2.3,2.4,40,0.00,CLR,,0.00,WeatherDisplay:10.37,2013-08-03 00:31:00,
2013-08-02 19:32:00,81.7,55.0,29.00,WNW,292,4.0,4.0,40,0.00,CLR,,0.00,WeatherDisplay:10.37,2013-08-03 00:32:00,
2013-08-02 19:33:00,81.7,55.0,29.00,West,270,4.6,4.6,40,0.00,CLR,,0.00,WeatherDisplay:10.37,2013-08-03 00:33:00,
2013-08-02 19:35:00,81.7,55.0,29.00,West,272,2.0,0.0,40,0.00,CLR,,0.00,WeatherDisplay:10.37,2013-08-03 00:35:00,
2013-08-02 19:37:00,81.5,55.5,29.00,WSW,248,3.5,3.5,41,0.00,CLR,,0.00,WeatherDisplay:10.37,2013-08-03 00:37:00,
2013-08-02 19:38:00,81.5,54.8,29.00,WNW,292,2.3,2.3,40,0.00,CLR,,0.00,WeatherDisplay:10.37,2013-08-03 00:38:00,
2013-08-02 19:42:00,81.5,54.8,29.00,WNW,292,3.6,3.6,40,0.00,CLR,,0.00,WeatherDisplay:10.37,2013-08-03 00:42:00,
2013-08-02 19:43:00,81.3,54.7,29.00,WNW,292,3.5,3.5,40,0.00,CLR,,0.00,WeatherDisplay:10.37,2013-08-03 00:43:00,
2013-08-02 19:46:00,81.3,55.4,29.00,West,270,4.6,4.6,41,0.00,CLR,,0.00,WeatherDisplay:10.37,2013-08-03 00:46:00,
2013-08-02 19:49:00,81.1,54.5,29.00,West,270,3.3,3.3,40,0.00,CLR,,0.00,WeatherDisplay:10.37,2013-08-03 00:49:00,
2013-08-02 19:50:00,81.1,54.5,29.00,West,274,2.0,0.0,40,0.00,CLR,,0.00,WeatherDisplay:10.37,2013-08-03 00:50:00,
2013-08-02 19:51:00,81.0,54.4,29.00,WNW,292,2.6,2.6,40,0.00,CLR,,0.00,WeatherDisplay:10.37,2013-08-03 00:51:00,
2013-08-02 19:52:00,81.0,54.4,29.00,WSW,248,2.3,2.3,40,0.00,CLR,,0.00,WeatherDisplay:10.37,2013-08-03 00:52:00,
2013-08-02 19:55:00,80.9,54.3,29.00,West,271,1.0,0.0,40,0.00,CLR,,0.00,WeatherDisplay:10.37,2013-08-03 00:55:00,
2013-08-02 19:58:00,80.8,54.9,29.00,WSW,248,2.9,2.9,41,0.00,CLR,,0.00,WeatherDisplay:10.37,2013-08-03 00:58:00,
2013-08-02 19:59:00,80.6,54.7,29.00,NW,315,2.3,2.3,41,0.00,CLR,,0.00,WeatherDisplay:10.37,2013-08-03 00:59:00,
2013-08-02 20:00:00,80.6,54.7,29.00,NW,315,2.3,2.3,41,0.00,CLR,,0.00,WeatherDisplay:10.37,2013-08-03 01:00:00,
2013-08-02 20:01:00,80.6,54.7,29.00,WSW,248,2.3,2.3,41,0.00,CLR,,0.00,WeatherDisplay:10.37,2013-08-03 01:01:00,
2013-08-02 20:03:00,80.4,55.2,29.00,WNW,292,4.6,4.6,42,0.00,CLR,,0.00,WeatherDisplay:10.37,2013-08-03 01:03:00,
2013-08-02 20:05:00,80.2,55.7,29.00,West,270,4.6,4.6,43,0.00,CLR,,0.00,WeatherDisplay:10.37,2013-08-03 01:05:00,
2013-08-02 20:07:00,80.1,55.5,29.00,WNW,292,2.9,2.9,43,0.00,CLR,,0.00,WeatherDisplay:10.37,2013-08-03 01:07:00,
2013-08-02 20:08:00,80.1,55.5,29.00,NW,315,3.5,3.5,43,0.00,CLR,,0.00,WeatherDisplay:10.37,2013-08-03 01:08:00,
2013-08-02 20:11:00,79.9,56.0,29.00,West,270,2.3,2.3,44,0.00,CLR,,0.00,WeatherDisplay:10.37,2013-08-03 01:11:00,
2013-08-02 20:13:00,79.9,56.6,29.00,NW,315,2.3,2.3,45,0.00,CLR,,0.00,WeatherDisplay:10.37,2013-08-03 01:13:00,
2013-08-02 20:14:00,79.7,56.5,29.00,WNW,292,1.1,1.1,45,0.00,CLR,,0.00,WeatherDisplay:10.37,2013-08-03 01:14:00,
2013-08-02 20:15:00,79.5,56.9,29.00,NNE,22,2.3,2.3,46,0.00,CLR,,0.00,WeatherDisplay:10.37,2013-08-03 01:15:00,
2013-08-02 20:16:00,79.3,57.4,29.00,NE,45,2.4,2.4,47,0.00,CLR,,0.00,WeatherDisplay:10.37,2013-08-03 01:16:00,
2013-08-02 20:18:00,79.2,57.8,29.00,NW,315,3.5,3.5,48,0.00,CLR,,0.00,WeatherDisplay:10.37,2013-08-03 01:18:00,
2013-08-02 20:20:00,78.9,57.6,29.00,NW,324,2.0,0.0,48,0.00,CLR,,0.00,WeatherDisplay:10.37,2013-08-03 01:20:00,
2013-08-02 20:25:00,77.9,56.6,29.00,North,358,3.0,0.0,48,0.00,CLR,,0.00,WeatherDisplay:10.37,2013-08-03 01:25:00,
2013-08-02 20:27:00,77.4,56.7,29.00,North,0,4.6,4.6,49,0.00,CLR,,0.00,WeatherDisplay:10.37,2013-08-03 01:27:00,
2013-08-02 20:28:00,77.0,56.4,29.00,North,0,5.8,5.8,49,0.00,CLR,,0.00,WeatherDisplay:10.37,2013-08-03 01:28:00,
2013-08-02 20:30:00,76.8,56.2,29.00,North,0,6.9,6.9,49,0.00,CLR,,0.00,WeatherDisplay:10.37,2013-08-03 01:30:00,
2013-08-02 20:31:00,76.6,57.2,29.00,NNE,22,6.9,6.9,51,0.00,CLR,,0.00,WeatherDisplay:10.37,2013-08-03 01:31:00,
2013-08-02 20:32:00,76.5,56.4,29.00,NNE,22,5.4,5.4,50,0.00,CLR,,0.00,WeatherDisplay:10.37,2013-08-03 01:32:00,
2013-08-02 20:33:00,76.3,56.3,29.00,NNE,22,5.8,5.8,50,0.00,CLR,,0.00,WeatherDisplay:10.37,2013-08-03 01:33:00,
2013-08-02 20:35:00,76.1,56.1,29.00,ENE,68,5.8,5.8,50,0.00,CLR,,0.00,WeatherDisplay:10.37,2013-08-03 01:35:00,
2013-08-02 20:38:00,75.9,56.5,29.00,WNW,292,2.3,0.0,51,0.00,CLR,,0.00,WeatherDisplay:10.37,2013-08-03 01:38:00,
2013-08-02 20:39:00,75.9,57.6,29.00,WNW,292,1.4,0.0,53,0.00,CLR,,0.00,WeatherDisplay:10.37,2013-08-03 01:39:00,
2013-08-02 20:40:00,75.7,57.9,29.00,NW,315,1.1,0.0,54,0.00,CLR,,0.00,WeatherDisplay:10.37,2013-08-03 01:40:00,
2013-08-02 20:41:00,75.7,57.4,29.00,NW,315,0.0,0.0,53,0.00,CLR,,0.00,WeatherDisplay:10.37,2013-08-03 01:41:00,
2013-08-02 20:44:00,75.6,57.7,29.06,West,270,0.0,0.0,54,0.00,CLR,,0.00,WeatherDisplay:10.37,2013-08-03 01:44:00,
2013-08-02 20:46:00,75.6,58.3,29.06,WSW,248,0.0,0.0,55,0.00,CLR,,0.00,WeatherDisplay:10.37,2013-08-03 01:46:00,
2013-08-02 20:47:00,75.4,58.1,29.06,SE,135,2.4,0.0,55,0.00,CLR,,0.00,WeatherDisplay:10.37,2013-08-03 01:47:00,
2013-08-02 20:48:00,75.6,59.3,29.06,East,90,2.3,2.3,57,0.00,CLR,,0.00,WeatherDisplay:10.37,2013-08-03 01:48:00,
2013-08-02 20:50:00,75.4,59.1,29.06,SW,224,1.0,0.0,57,0.00,CLR,,0.00,WeatherDisplay:10.37,2013-08-03 01:50:00,
2013-08-02 20:51:00,75.4,58.6,29.06,SSE,158,2.3,0.0,56,0.00,CLR,,0.00,WeatherDisplay:10.37,2013-08-03 01:51:00,
2013-08-02 20:52:00,75.4,59.1,29.06,SSE,158,1.1,0.0,57,0.00,CLR,,0.00,WeatherDisplay:10.37,2013-08-03 01:52:00,
2013-08-02 20:53:00,75.2,58.9,29.06,SSE,158,0.0,0.0,57,0.00,CLR,,0.00,WeatherDisplay:10.37,2013-08-03 01:53:00,
2013-08-02 20:56:00,75.2,59.4,29.06,SSE,158,1.1,0.0,58,0.00,CLR,,0.00,WeatherDisplay:10.37,2013-08-03 01:56:00,
2013-08-02 20:58:00,75.2,59.9,29.03,SW,225,1.1,0.0,59,0.00,CLR,,0.00,WeatherDisplay:10.37,2013-08-03 01:58:00,
2013-08-02 20:59:00,75.2,60.4,29.03,SW,225,0.9,0.0,60,0.00,CLR,,0.00,WeatherDisplay:10.37,2013-08-03 01:59:00,
2013-08-02 21:01:00,75.0,61.1,29.03,SW,225,0.0,0.0,62,0.00,CLR,,0.00,WeatherDisplay:10.37,2013-08-03 02:01:00,
2013-08-02 21:03:00,75.0,61.1,29.03,SW,225,0.0,0.0,62,0.00,CLR,,0.00,WeatherDisplay:10.37,2013-08-03 02:03:00,
2013-08-02 21:04:00,75.0,61.1,29.03,SW,225,0.0,0.0,62,0.00,CLR,,0.00,WeatherDisplay:10.37,2013-08-03 02:04:00,
2013-08-02 21:07:00,74.8,60.5,29.03,SW,225,0.0,0.0,61,0.00,CLR,,0.00,WeatherDisplay:10.37,2013-08-03 02:07:00,
2013-08-02 21:09:00,74.8,60.0,29.03,SW,225,1.1,1.1,60,0.00,CLR,,0.00,WeatherDisplay:10.37,2013-08-03 02:09:00,
2013-08-02 21:10:00,74.8,60.0,29.03,SW,225,0.0,0.0,60,0.00,CLR,,0.00,WeatherDisplay:10.37,2013-08-03 02:10:00,
2013-08-02 21:11:00,74.8,60.0,29.03,NW,315,1.1,0.0,60,0.00,CLR,,0.00,WeatherDisplay:10.37,2013-08-03 02:11:00,
2013-08-02 21:13:00,74.7,59.4,29.03,NW,315,1.4,1.4,59,0.00,CLR,,0.00,WeatherDisplay:10.37,2013-08-03 02:13:00,
2013-08-02 21:14:00,74.7,59.4,29.03,NNW,338,1.1,1.4,59,0.00,CLR,,0.00,WeatherDisplay:10.37,2013-08-03 02:14:00,
2013-08-02 21:15:00,74.7,59.9,29.03,ENE,68,3.6,3.6,60,0.00,CLR,,0.00,WeatherDisplay:10.37,2013-08-03 02:15:00,
2013-08-02 21:16:00,74.5,59.2,29.03,NNE,22,4.7,4.7,59,0.00,CLR,,0.00,WeatherDisplay:10.37,2013-08-03 02:16:00,
2013-08-02 21:17:00,74.5,58.7,29.03,NE,45,5.8,5.8,58,0.00,CLR,,0.00,WeatherDisplay:10.37,2013-08-03 02:17:00,
2013-08-02 21:19:00,74.5,59.2,29.03,NNW,338,4.0,4.0,59,0.00,CLR,,0.00,WeatherDisplay:10.37,2013-08-03 02:19:00,
2013-08-02 21:21:00,74.3,58.6,29.03,NNW,338,2.3,2.3,58,0.00,CLR,,0.00,WeatherDisplay:10.37,2013-08-03 02:21:00,
2013-08-02 21:22:00,74.3,58.6,29.03,North,0,1.1,1.4,58,0.00,CLR,,0.00,WeatherDisplay:10.37,2013-08-03 02:22:00,
2013-08-02 21:23:00,74.3,58.6,29.03,NNW,338,1.1,0.0,58,0.00,CLR,,0.00,WeatherDisplay:10.37,2013-08-03 02:23:00,
2013-08-02 21:26:00,74.1,59.3,29.03,NE,45,2.3,2.3,60,0.00,CLR,,0.00,WeatherDisplay:10.37,2013-08-03 02:26:00,
2013-08-02 21:27:00,74.1,59.3,29.03,North,0,2.3,0.0,60,0.00,CLR,,0.00,WeatherDisplay:10.37,2013-08-03 02:27:00,
2013-08-02 21:28:00,74.1,59.3,29.03,North,0,1.1,0.0,60,0.00,CLR,,0.00,WeatherDisplay:10.37,2013-08-03 02:28:00,
2013-08-02 21:29:00,74.1,59.3,29.03,North,0,2.0,2.0,60,0.00,CLR,,0.00,WeatherDisplay:10.37,2013-08-03 02:29:00,
2013-08-02 21:31:00,73.9,58.7,29.03,NW,315,2.3,0.0,59,0.00,CLR,,0.00,WeatherDisplay:10.37,2013-08-03 02:31:00,
2013-08-02 21:33:00,73.9,58.7,29.03,North,0,1.1,1.1,59,0.00,CLR,,0.00,WeatherDisplay:10.37,2013-08-03 02:33:00,
2013-08-02 21:34:00,73.9,58.2,29.03,North,0,2.3,2.3,58,0.00,CLR,,0.00,WeatherDisplay:10.37,2013-08-03 02:34:00,
2013-08-02 21:35:00,73.9,58.7,29.03,North,349,1.0,0.0,59,0.00,CLR,,0.00,WeatherDisplay:10.37,2013-08-03 02:35:00,
2013-08-02 21:36:00,73.8,58.1,29.03,North,0,2.9,2.9,58,0.00,CLR,,0.00,WeatherDisplay:10.37,2013-08-03 02:36:00,
2013-08-02 21:38:00,73.8,58.1,29.03,North,0,2.3,2.3,58,0.00,CLR,,0.00,WeatherDisplay:10.37,2013-08-03 02:38:00,
2013-08-02 21:40:00,73.8,58.1,29.03,North,0,2.3,2.3,58,0.00,CLR,,0.00,WeatherDisplay:10.37,2013-08-03 02:40:00,
2013-08-02 21:41:00,73.8,58.1,29.03,North,0,3.6,0.0,58,0.00,CLR,,0.00,WeatherDisplay:10.37,2013-08-03 02:41:00,
2013-08-02 21:43:00,73.6,58.4,29.06,NNW,338,2.0,0.0,59,0.00,CLR,,0.00,WeatherDisplay:10.37,2013-08-03 02:43:00,
2013-08-02 21:44:00,73.6,58.4,29.06,North,0,2.6,0.0,59,0.00,CLR,,0.00,WeatherDisplay:10.37,2013-08-03 02:44:00,
2013-08-02 21:45:00,73.6,57.9,29.06,ENE,68,3.5,3.5,58,0.00,CLR,,0.00,WeatherDisplay:10.37,2013-08-03 02:45:00,
2013-08-02 21:49:00,73.4,57.2,29.06,NE,45,3.5,3.5,57,0.00,CLR,,0.00,WeatherDisplay:10.37,2013-08-03 02:49:00,
2013-08-02 21:50:00,73.4,57.2,29.06,ENE,68,2.9,2.9,57,0.00,CLR,,0.00,WeatherDisplay:10.37,2013-08-03 02:50:00,
2013-08-02 21:51:00,73.4,57.2,29.06,North,0,3.6,3.6,57,0.00,CLR,,0.00,WeatherDisplay:10.37,2013-08-03 02:51:00,
2013-08-02 21:52:00,73.4,57.2,29.06,NNE,22,3.5,3.5,57,0.00,CLR,,0.00,WeatherDisplay:10.37,2013-08-03 02:52:00,
2013-08-02 21:54:00,73.4,57.2,29.06,ENE,68,2.9,2.9,57,0.00,CLR,,0.00,WeatherDisplay:10.37,2013-08-03 02:54:00,
2013-08-02 21:56:00,73.2,56.6,29.06,NNW,338,4.6,4.6,56,0.00,CLR,,0.00,WeatherDisplay:10.37,2013-08-03 02:56:00,
2013-08-02 21:57:00,73.2,57.1,29.06,NNE,22,4.3,4.3,57,0.00,CLR,,0.00,WeatherDisplay:10.37,2013-08-03 02:57:00,
2013-08-02 21:58:00,73.2,57.1,29.06,ENE,68,4.6,4.6,57,0.00,CLR,,0.00,WeatherDisplay:10.37,2013-08-03 02:58:00,
2013-08-02 22:00:00,73.2,57.1,29.06,NE,34,2.0,0.0,57,0.00,CLR,,0.00,WeatherDisplay:10.37,2013-08-03 03:00:00,
2013-08-02 22:02:00,73.0,56.4,29.06,NNE,22,5.8,5.8,56,0.00,CLR,,0.00,WeatherDisplay:10.37,2013-08-03 03:02:00,
2013-08-02 22:03:00,73.0,56.9,29.06,ENE,68,2.4,2.4,57,0.00,CLR,,0.00,WeatherDisplay:10.37,2013-08-03 03:03:00,
2013-08-02 22:04:00,73.0,56.4,29.06,ENE,68,3.3,3.3,56,0.00,CLR,,0.00,WeatherDisplay:10.37,2013-08-03 03:04:00,
2013-08-02 22:05:00,73.0,56.9,29.06,NNE,33,2.0,0.0,57,0.00,CLR,,0.00,WeatherDisplay:10.37,2013-08-03 03:05:00,
2013-08-02 22:08:00,72.9,55.7,29.06,NE,45,2.3,2.3,55,0.00,CLR,,0.00,WeatherDisplay:10.37,2013-08-03 03:08:00,
2013-08-02 22:10:00,72.9,55.7,29.06,NNE,22,1.1,0.0,55,0.00,CLR,,0.00,WeatherDisplay:10.37,2013-08-03 03:10:00,
2013-08-02 22:11:00,72.9,55.7,29.06,NNW,338,1.1,0.0,55,0.00,CLR,,0.00,WeatherDisplay:10.37,2013-08-03 03:11:00,
2013-08-02 22:13:00,72.7,56.1,29.06,NE,45,3.1,3.1,56,0.00,CLR,,0.00,WeatherDisplay:10.37,2013-08-03 03:13:00,
2013-08-02 22:15:00,72.5,55.4,29.06,NNE,22,2.3,3.1,55,0.00,CLR,,0.00,WeatherDisplay:10.37,2013-08-03 03:15:00,
2013-08-02 22:16:00,72.5,55.4,29.06,North,0,5.8,5.8,55,0.00,CLR,,0.00,WeatherDisplay:10.37,2013-08-03 03:16:00,
2013-08-02 22:17:00,72.5,55.4,29.06,ENE,68,3.5,3.5,55,0.00,CLR,,0.00,WeatherDisplay:10.37,2013-08-03 03:17:00,
2013-08-02 22:19:00,72.5,55.4,29.06,NNW,338,5.8,5.8,55,0.00,CLR,,0.00,WeatherDisplay:10.37,2013-08-03 03:19:00,
2013-08-02 22:20:00,72.3,55.2,29.06,ENE,68,2.3,2.3,55,0.00,CLR,,0.00,WeatherDisplay:10.37,2013-08-03 03:20:00,
2013-08-02 22:21:00,72.3,55.7,29.06,ENE,68,1.1,0.0,56,0.00,CLR,,0.00,WeatherDisplay:10.37,2013-08-03 03:21:00,
2013-08-02 22:22:00,72.3,55.7,29.06,NE,45,1.4,0.0,56,0.00,CLR,,0.00,WeatherDisplay:10.37,2013-08-03 03:22:00,
2013-08-02 22:23:00,72.3,55.7,29.06,NNE,22,1.1,0.0,56,0.00,CLR,,0.00,WeatherDisplay:10.37,2013-08-03 03:23:00,
2013-08-02 22:24:00,72.3,55.7,29.06,North,0,1.1,1.1,56,0.00,CLR,,0.00,WeatherDisplay:10.37,2013-08-03 03:24:00,
2013-08-02 22:27:00,72.1,55.1,29.09,NNW,338,2.3,2.3,55,0.00,CLR,,0.00,WeatherDisplay:10.37,2013-08-03 03:27:00,
2013-08-02 22:29:00,72.1,54.6,29.09,NNE,22,4.6,4.6,54,0.00,CLR,,0.00,WeatherDisplay:10.37,2013-08-03 03:29:00,
2013-08-02 22:31:00,72.0,54.4,29.09,NE,45,4.6,4.6,54,0.00,CLR,,0.00,WeatherDisplay:10.37,2013-08-03 03:31:00,
2013-08-02 22:32:00,72.0,54.4,29.09,NNE,22,5.8,5.8,54,0.00,CLR,,0.00,WeatherDisplay:10.37,2013-08-03 03:32:00,
2013-08-02 22:34:00,72.0,54.4,29.09,NNE,25,1.0,0.0,54,0.00,CLR,,0.00,WeatherDisplay:10.37,2013-08-03 03:34:00,
2013-08-02 22:37:00,72.0,54.4,29.09,NNW,338,1.1,1.4,54,0.00,CLR,,0.00,WeatherDisplay:10.37,2013-08-03 03:37:00,
2013-08-02 22:39:00,71.8,54.2,29.09,NNW,338,2.6,2.6,54,0.00,CLR,,0.00,WeatherDisplay:10.37,2013-08-03 03:39:00,
2013-08-02 22:40:00,71.6,53.6,29.09,North,0,2.3,2.3,53,0.00,CLR,,0.00,WeatherDisplay:10.37,2013-08-03 03:40:00,
2013-08-02 22:43:00,71.6,53.6,29.09,ENE,68,2.3,2.3,53,0.00,CLR,,0.00,WeatherDisplay:10.37,2013-08-03 03:43:00,
2013-08-02 22:44:00,71.6,53.6,29.09,NNW,338,2.3,2.3,53,0.00,CLR,,0.00,WeatherDisplay:10.37,2013-08-03 03:44:00,
2013-08-02 22:45:00,71.4,53.4,29.09,NNW,338,2.3,2.3,53,0.00,CLR,,0.00,WeatherDisplay:10.37,2013-08-03 03:45:00,
2013-08-02 22:47:00,71.4,53.4,29.09,NNW,338,2.3,2.3,53,0.00,CLR,,0.00,WeatherDisplay:10.37,2013-08-03 03:47:00,
2013-08-02 22:48:00,71.4,53.4,29.09,North,0,3.5,3.5,53,0.00,CLR,,0.00,WeatherDisplay:10.37,2013-08-03 03:48:00,
2013-08-02 22:49:00,71.2,53.2,29.09,North,0,3.5,3.5,53,0.00,CLR,,0.00,WeatherDisplay:10.37,2013-08-03 03:49:00,
2013-08-02 22:50:00,71.2,53.2,29.09,NNE,22,3.5,3.5,53,0.00,CLR,,0.00,WeatherDisplay:10.37,2013-08-03 03:50:00,
2013-08-02 22:53:00,71.1,53.1,29.09,North,0,1.4,1.6,53,0.00,CLR,,0.00,WeatherDisplay:10.37,2013-08-03 03:53:00,
2013-08-02 22:55:00,71.1,53.1,29.09,North,2,1.0,0.0,53,0.00,CLR,,0.00,WeatherDisplay:10.37,2013-08-03 03:55:00,
2013-08-02 22:56:00,71.1,53.6,29.09,NE,45,2.4,0.0,54,0.00,CLR,,0.00,WeatherDisplay:10.37,2013-08-03 03:56:00,
2013-08-02 22:58:00,71.1,53.6,29.09,NE,45,2.3,2.3,54,0.00,CLR,,0.00,WeatherDisplay:10.37,2013-08-03 03:58:00,
2013-08-02 23:00:00,71.0,53.5,29.09,NNE,20,1.0,0.0,54,0.00,CLR,,0.00,WeatherDisplay:10.37,2013-08-03 04:00:00,
2013-08-02 23:01:00,70.9,53.4,29.09,NNE,22,3.5,3.5,54,0.00,CLR,,0.00,WeatherDisplay:10.37,2013-08-03 04:01:00,
2013-08-02 23:02:00,70.9,53.4,29.09,NNW,338,3.5,3.5,54,0.00,CLR,,0.00,WeatherDisplay:10.37,2013-08-03 04:02:00,
2013-08-02 23:04:00,70.9,53.4,29.09,ENE,68,2.3,2.3,54,0.00,CLR,,0.00,WeatherDisplay:10.37,2013-08-03 04:04:00,
2013-08-02 23:05:00,70.9,53.9,29.09,NE,45,0.0,0.0,55,0.00,CLR,,0.00,WeatherDisplay:10.37,2013-08-03 04:05:00,
2013-08-02 23:07:00,70.7,53.2,29.09,NNW,338,0.0,0.0,54,0.00,CLR,,0.00,WeatherDisplay:10.37,2013-08-03 04:07:00,
2013-08-02 23:09:00,70.7,53.2,29.09,NW,315,2.3,0.0,54,0.00,CLR,,0.00,WeatherDisplay:10.37,2013-08-03 04:09:00,
2013-08-02 23:10:00,70.5,52.6,29.09,NW,315,2.3,2.3,53,0.00,CLR,,0.00,WeatherDisplay:10.37,2013-08-03 04:10:00,
2013-08-02 23:12:00,70.5,52.6,29.09,NW,315,1.1,0.0,53,0.00,CLR,,0.00,WeatherDisplay:10.37,2013-08-03 04:12:00,
2013-08-02 23:13:00,70.5,52.6,29.09,NW,315,0.0,0.0,53,0.00,CLR,,0.00,WeatherDisplay:10.37,2013-08-03 04:13:00,
2013-08-02 23:14:00,70.5,52.6,29.09,NW,324,0.0,0.0,53,0.00,CLR,,0.00,WeatherDisplay:10.37,2013-08-03 04:14:00,
2013-08-02 23:15:00,70.5,52.6,29.09,NW,315,0.0,0.0,53,0.00,CLR,,0.00,WeatherDisplay:10.37,2013-08-03 04:15:00,
2013-08-02 23:17:00,70.5,52.6,29.09,NE,45,2.4,2.4,53,0.00,CLR,,0.00,WeatherDisplay:10.37,2013-08-03 04:17:00,
2013-08-02 23:19:00,70.5,52.6,29.09,ENE,68,2.3,2.3,53,0.00,CLR,,0.00,WeatherDisplay:10.37,2013-08-03 04:19:00,
2013-08-02 23:20:00,70.5,52.6,29.09,NNE,15,1.0,0.0,53,0.00,CLR,,0.00,WeatherDisplay:10.37,2013-08-03 04:20:00,
2013-08-02 23:21:00,70.5,53.1,29.09,ENE,68,1.1,0.0,54,0.00,CLR,,0.00,WeatherDisplay:10.37,2013-08-03 04:21:00,
2013-08-02 23:23:00,70.5,53.1,29.09,North,0,0.0,0.0,54,0.00,CLR,,0.00,WeatherDisplay:10.37,2013-08-03 04:23:00,
2013-08-02 23:24:00,70.5,52.6,29.09,NNW,338,0.9,0.0,53,0.00,CLR,,0.00,WeatherDisplay:10.37,2013-08-03 04:24:00,
2013-08-02 23:27:00,70.5,52.6,29.09,NNW,338,1.1,0.0,53,0.00,CLR,,0.00,WeatherDisplay:10.37,2013-08-03 04:27:00,
2013-08-02 23:28:00,70.5,52.6,29.09,NNW,338,1.1,0.0,53,0.00,CLR,,0.00,WeatherDisplay:10.37,2013-08-03 04:28:00,
2013-08-02 23:29:00,70.5,52.6,29.09,NNW,338,0.0,0.0,53,0.00,CLR,,0.00,WeatherDisplay:10.37,2013-08-03 04:29:00,
2013-08-02 23:31:00,70.5,52.6,29.09,NNW,338,2.0,2.0,53,0.00,CLR,,0.00,WeatherDisplay:10.37,2013-08-03 04:31:00,
2013-08-02 23:32:00,70.5,52.6,29.09,North,0,2.9,2.9,53,0.00,CLR,,0.00,WeatherDisplay:10.37,2013-08-03 04:32:00,
2013-08-02 23:33:00,70.3,52.4,29.09,North,0,2.3,2.3,53,0.00,CLR,,0.00,WeatherDisplay:10.37,2013-08-03 04:33:00,
2013-08-02 23:34:00,70.3,52.4,29.09,North,0,1.1,1.1,53,0.00,CLR,,0.00,WeatherDisplay:10.37,2013-08-03 04:34:00,
2013-08-02 23:36:00,70.3,51.9,29.09,North,0,1.1,0.0,52,0.00,CLR,,0.00,WeatherDisplay:10.37,2013-08-03 04:36:00,
2013-08-02 23:37:00,70.3,51.9,29.09,North,0,1.1,0.0,52,0.00,CLR,,0.00,WeatherDisplay:10.37,2013-08-03 04:37:00,
2013-08-02 23:40:00,70.3,52.4,29.09,North,359,0.0,0.0,53,0.00,CLR,,0.00,WeatherDisplay:10.37,2013-08-03 04:40:00,
2013-08-02 23:41:00,70.3,52.4,29.09,NNE,22,2.3,2.3,53,0.00,CLR,,0.00,WeatherDisplay:10.37,2013-08-03 04:41:00,
2013-08-02 23:43:00,70.3,52.4,29.09,NNW,338,1.1,0.0,53,0.00,CLR,,0.00,WeatherDisplay:10.37,2013-08-03 04:43:00,
2013-08-02 23:44:00,70.3,52.4,29.09,North,0,1.1,0.0,53,0.00,CLR,,0.00,WeatherDisplay:10.37,2013-08-03 04:44:00,
2013-08-02 23:45:00,70.3,52.4,29.09,North,0,1.1,0.0,53,0.00,CLR,,0.00,WeatherDisplay:10.37,2013-08-03 04:45:00,
2013-08-02 23:47:00,70.3,52.4,29.09,North,0,0.0,0.0,53,0.00,CLR,,0.00,WeatherDisplay:10.37,2013-08-03 04:47:00,
2013-08-02 23:49:00,70.3,52.4,29.09,North,0,0.0,0.0,53,0.00,CLR,,0.00,WeatherDisplay:10.37,2013-08-03 04:49:00,
2013-08-02 23:50:00,70.3,52.4,29.09,North,3,0.0,0.0,53,0.00,CLR,,0.00,WeatherDisplay:10.37,2013-08-03 04:50:00,
2013-08-02 23:52:00,70.3,52.9,29.09,NNW,338,0.0,0.0,54,0.00,CLR,,0.00,WeatherDisplay:10.37,2013-08-03 04:52:00,
2013-08-02 23:56:00,70.3,52.4,29.09,NW,315,1.1,0.0,53,0.00,CLR,,0.00,WeatherDisplay:10.37,2013-08-03 04:56:00,
2013-08-02 23:59:00,70.2,51.7,29.09,NW,315,1.1,0.0,52,0.00,CLR,,0.00,WeatherDisplay:10.37,2013-08-03 04:59:00,